popo55 Games - Total: 16031
1 2 3 4 5 6 7 8 9 10 11 12 13 14 15 16 17
Rank Song Name Score PGAMB Combo Time
2,374 Pork and Beans 26,395 19 - 2 - 1 - 18 - 4 21 2016-01-12 15:55:06
1,829 Pork and Beans 315,385 258 - 45 - 12 - 21 - 2 167 2016-01-12 15:34:09
6,524 MegaScorcher 581,405 359 - 32 - 1 - 22 - 4 382 2016-01-12 15:33:07
1,991 Wind Waker Unplugged 979,020 687 - 85 - 9 - 32 - 39 588 2016-01-10 15:02:38
7,999 Wind Waker Unplugged 9,455 8 - 3 - 0 - 15 - 6 9 2016-01-10 15:00:17
8,176 Wind Waker Unplugged 4,080 4 - 2 - 0 - 15 - 1 6 2016-01-10 15:00:07
2,861 asterisk 177,600 124 - 13 - 3 - 20 - 7 112 2016-01-10 14:59:43
602 Futari, Hajimari. 1,206,675 939 - 134 - 15 - 9 - 33 656 2016-01-10 14:58:42
1,124 Futari, Hajimari. 243,365 181 - 43 - 0 - 19 - 6 138 2016-01-10 14:55:50
3,444 Toono Youkai Zensen 880,155 680 - 120 - 17 - 28 - 55 482 2016-01-10 14:53:49
3,015 Radius ~Hacker No Yabou~ 1,382,690 967 - 78 - 6 - 2 - 16 830 2016-01-10 14:51:45
25,550 Final Fantasy 3 Boss 436,665 271 - 27 - 2 - 22 - 5 287 2016-01-10 14:47:35
30,535 Final Fantasy 3 Boss 234,825 210 - 26 - 1 - 22 - 3 119 2016-01-10 14:45:32
18,733 Youkoso! Himitsu no Janbaraya! 495,800 334 - 55 - 5 - 26 - 12 305 2016-01-10 14:43:59
1,243 Taking Wing 464,565 285 - 29 - 0 - 22 - 17 307 2016-01-10 14:42:37
2,257 Lady's Cake 472,905 312 - 45 - 4 - 3 - 18 290 2016-01-10 14:40:59
758 beyond the summer sky ~Maid To Order~ 814,215 598 - 35 - 4 - 3 - 30 477 2016-01-10 14:38:54
1,927 Ochitsukeruwakenaiwayo! [Standard] 888,485 534 - 44 - 5 - 1 - 14 583 2016-01-08 15:28:28
3,877 Ochitsukeruwakenaiwayo! [Standard] 26,270 14 - 3 - 1 - 1 - 0 18 2016-01-08 15:27:04
3,586 Ochitsukeruwakenaiwayo! [Standard] 117,570 65 - 11 - 3 - 1 - 3 79 2016-01-08 15:26:57
6,159 dr0p 785,440 481 - 30 - 2 - 1 - 8 513 2016-01-08 15:25:54
9,512 Dimensions 587,185 367 - 13 - 2 - 1 - 2 382 2016-01-08 15:23:37
10,512 Euro Freak 867,610 524 - 43 - 1 - 1 - 8 568 2016-01-08 15:21:58
22,973 the Dream of Scarlet 55,110 32 - 4 - 2 - 2 - 4 37 2016-01-08 15:19:45
13,173 Robotix 795,330 482 - 30 - 10 - 1 - 13 522 2016-01-08 15:19:18
23,989 Hardcore of the North 299,550 174 - 22 - 2 - 1 - 0 198 2016-01-08 15:17:25
3,889 Carol Megamix 1,857,895 1,153 - 51 - 6 - 1 - 15 1,210 2016-01-08 15:15:59
14,507 Playdoh 329,415 203 - 11 - 2 - 1 - 3 215 2016-01-08 15:13:00
14,481 Playdoh 331,270 208 - 8 - 0 - 1 - 1 215 2016-01-08 15:12:10
22,554 Abtrusity 730,690 436 - 41 - 3 - 1 - 12 480 2016-01-08 15:10:37
327 Crucial 318,410 191 - 17 - 1 - 1 - 3 209 2016-01-08 15:08:41
341 Crucial 91,845 57 - 3 - 0 - 1 - 1 60 2016-01-08 15:07:22
382 Lettuce Regulation 158,475 100 - 3 - 0 - 1 - 2 103 2016-01-08 15:06:39
102 Emotional Adventure [FC] 923,645 564 - 38 - 1 - 0 - 3 603 2016-01-08 15:05:43
265 Emotional Adventure 1,240 1 - 0 - 0 - 1 - 0 1 2016-01-08 15:03:20
48,647 Beethoven Virus 498,845 313 - 11 - 0 - 1 - 1 324 2016-01-08 15:03:00
60,827 Beethoven Virus 441,745 277 - 10 - 1 - 1 - 5 287 2016-01-08 15:01:50
3,516 Summer -Speedy Mix- 661,605 670 - 87 - 8 - 12 - 27 273 2016-01-08 14:55:46
3,436 Shihen 742,905 762 - 190 - 19 - 59 - 60 290 2016-01-08 14:53:46
4,746 Shihen 137,975 87 - 17 - 0 - 21 - 2 92 2016-01-08 14:51:22
4,547 Shihen 375,020 281 - 45 - 1 - 22 - 7 215 2016-01-08 14:50:47
1,938 Grandolin 859,960 601 - 66 - 6 - 3 - 7 512 2016-01-08 14:49:48
746 Pull in Pull in Popped Syo Call up Arrest 341,640 324 - 34 - 2 - 22 - 10 161 2016-01-08 14:47:38
578 Tied The Room Together 254,205 292 - 54 - 9 - 14 - 20 83 2016-01-08 14:46:26
413 Day's End 628,450 698 - 110 - 16 - 24 - 57 222 2016-01-07 08:28:37
1,489 Rainbow Road [Zorsy] 384,490 504 - 80 - 4 - 15 - 14 90 2016-01-07 08:26:04
908 asterisk 710,575 611 - 79 - 2 - 15 - 33 358 2016-01-07 08:24:01
2,088 Waltz In The Rain 594,420 635 - 135 - 9 - 23 - 66 216 2016-01-07 08:22:05
1,460 Sunshine rainy [Heavy] 465,625 466 - 135 - 10 - 41 - 32 185 2016-01-07 08:19:50
280 Yukidokeiro Flowers 905,370 717 - 164 - 34 - 45 - 100 480 2016-01-06 16:43:58
4,977 Uber Rave v2 1,029,640 843 - 85 - 13 - 30 - 40 552 2016-01-06 16:40:53
10,192 Lovely Lovely Lovely 471,455 473 - 101 - 10 - 36 - 43 195 2016-01-06 16:38:13
4,720 Evil Approaches 1,047,190 677 - 80 - 12 - 14 - 24 657 2016-01-06 16:35:27
17,221 Evil Approaches 126,950 83 - 9 - 1 - 23 - 5 86 2016-01-06 16:33:23
10,101 Tribal Transcendency 466,210 324 - 37 - 7 - 23 - 21 285 2016-01-06 16:32:38
16,395 Delirium 791,705 689 - 88 - 7 - 23 - 35 396 2016-01-06 16:30:41
2,847 Rondo Alla Turca v2 1,141,655 1,350 - 151 - 10 - 12 - 60 362 2016-01-06 15:42:16
4,379 Force of Light 969,055 970 - 89 - 6 - 9 - 23 414 2016-01-06 15:38:58
3,175 ASB 919,645 751 - 91 - 14 - 2 - 29 482 2016-01-06 15:36:13
5,442 Turbulence 482,650 547 - 163 - 15 - 31 - 62 147 2016-01-06 15:34:01
5,697 Wish (For FFR) 770,240 895 - 191 - 23 - 18 - 61 231 2016-01-06 15:32:13
16,052 Wish (For FFR) 23,990 16 - 4 - 0 - 19 - 1 20 2016-01-06 15:30:13
4,671 NeoMAX 968,290 634 - 63 - 3 - 2 - 14 603 2016-01-06 15:29:39
1,107 4F73R M3 (FFR Edit) 1,346,365 872 - 10 - 3 - 3 - 11 865 2016-01-06 15:26:25
6,354 Uber Rave 1,063,725 809 - 128 - 11 - 17 - 38 589 2016-01-06 15:23:10
3,910 Rondo Alla Turca 1,069,295 1,324 - 203 - 12 - 11 - 49 289 2016-01-06 15:20:06
39,755 Rondo Alla Turca 12,655 12 - 1 - 0 - 20 - 1 12 2016-01-06 15:16:33
23,367 HELLBEAT 193,280 150 - 84 - 10 - 55 - 41 105 2016-01-06 15:16:04
13,704 Troglodytic Epica 1,565,755 936 - 92 - 7 - 21 - 11 1,032 2016-01-05 12:03:02
32,241 Troglodytic Epica 65,455 42 - 9 - 0 - 16 - 8 45 2016-01-05 11:59:41
32,826 Troglodytic Epica 22,765 16 - 2 - 1 - 18 - 3 19 2016-01-05 11:59:05
1,966 Find a Pet (Candy Mix) 659,905 436 - 37 - 4 - 19 - 20 416 2016-01-05 11:58:17
17,495 The Final Fantasy 407,890 342 - 38 - 2 - 21 - 13 216 2016-01-05 11:56:51
767 Taking Wing 672,370 483 - 64 - 2 - 27 - 31 398 2016-01-05 11:29:25
1,684 Taking Wing 130,135 84 - 4 - 1 - 20 - 1 89 2016-01-05 11:27:46
2,211 Lady's Cake 439,335 317 - 37 - 6 - 4 - 14 256 2016-01-05 11:26:51
8,280 Lady's Cake 253,815 163 - 11 - 0 - 22 - 2 168 2016-01-05 11:25:51
840 beyond the summer sky ~Maid To Order~ 756,355 579 - 53 - 6 - 2 - 19 424 2016-01-05 11:24:57
71 Back to the Gate [FC] 1,324,635 817 - 40 - 7 - 0 - 5 864 2016-01-05 11:22:38
5,250 Seven 656,075 636 - 120 - 13 - 8 - 48 276 2016-01-04 15:59:52
11,111 Aztec Templing (Techno-Titlan Mix) 442,215 353 - 72 - 9 - 37 - 38 240 2016-01-04 15:57:40
17,931 The Games We Played [Part 5] 1,279,920 972 - 131 - 13 - 26 - 18 717 2016-01-04 15:56:26
11,957 Mother Of God 779,000 445 - 77 - 5 - 22 - 19 520 2016-01-04 15:51:42
16,919 Etude To A Dragon 556,500 385 - 93 - 7 - 25 - 23 327 2016-01-04 15:49:48
37,291 Etude To A Dragon 2,275 5 - 1 - 2 - 12 - 7 3 2016-01-04 15:48:34
11,506 Hyper Pressure 808,020 488 - 44 - 6 - 21 - 15 534 2016-01-04 15:48:08
20,662 Fantranstic 244,070 244 - 15 - 1 - 23 - 9 113 2016-01-04 15:46:49
22,181 Delirium 505,840 318 - 20 - 2 - 21 - 8 332 2016-01-04 15:45:44
8,333 Rondo Alla Turca v2 635,355 498 - 54 - 15 - 28 - 27 355 2016-01-04 15:44:41
17,876 Force of Light 639,280 390 - 45 - 1 - 21 - 7 419 2016-01-04 15:43:18
11,574 ASB 494,435 428 - 85 - 8 - 24 - 17 243 2016-01-04 15:42:04
10,097 Turbulence 315,685 235 - 45 - 2 - 25 - 15 182 2016-01-04 15:40:48
11,983 Wish (For FFR) 242,735 168 - 34 - 5 - 23 - 8 148 2016-01-04 15:39:58
29,398 Uber Rave 211,705 131 - 19 - 0 - 21 - 3 141 2016-01-04 15:39:21
17,156 Rondo Alla Turca 712,770 434 - 39 - 1 - 21 - 10 470 2016-01-04 15:23:38
28,981 Rondo Alla Turca 110,945 82 - 5 - 0 - 21 - 1 71 2016-01-04 15:22:30
42,297 Rondo Alla Turca 9,000 6 - 6 - 0 - 19 - 3 10 2016-01-04 15:22:01
88 Yay Yeah 136,900 142 - 38 - 0 - 43 - 16 62 2016-01-04 15:20:57
103 Yay Yeah 12,475 11 - 3 - 2 - 21 - 0 12 2016-01-04 15:20:25
886 Once Upon A December 481,335 294 - 43 - 0 - 23 - 3 315 2016-01-04 15:17:45
149 Back to the Gate 517,195 311 - 35 - 2 - 21 - 4 343 2016-01-04 15:16:24
15,982 Frozen Rain 151,950 107 - 14 - 2 - 22 - 2 96 2016-01-04 15:14:54
889 Made In Innocent 543,175 322 - 40 - 1 - 22 - 8 362 2016-01-04 07:56:51
921 Made In Innocent 368,490 232 - 15 - 5 - 21 - 0 243 2016-01-04 07:54:48
12,596 Prison Break 662,760 451 - 34 - 2 - 21 - 12 412 2016-01-04 07:53:35
1,755 BLUE ARMY 1,019,405 1,334 - 210 - 23 - 83 - 79 254 2016-01-03 16:24:06
2,214 BLUE ARMY 5,110 4 - 3 - 1 - 9 - 9 5 2016-01-03 16:20:27
7,380 Lawn Wake IV (Black) 359,865 408 - 69 - 14 - 34 - 37 127 2016-01-03 16:20:01
12,316 Szamar Madar 389,090 249 - 16 - 2 - 17 - 5 253 2016-01-03 16:18:31
12,092 B.B. - Euro - 467,190 497 - 49 - 7 - 30 - 36 190 2016-01-03 16:17:40
1,416 beyond the summer sky ~Maid To Order~ 586,890 512 - 51 - 5 - 21 - 25 298 2016-01-03 16:16:18
4,644 beyond the summer sky ~Maid To Order~ 14,275 10 - 4 - 1 - 10 - 14 11 2016-01-03 16:14:34
4,675 beyond the summer sky ~Maid To Order~ 2,650 3 - 0 - 0 - 6 - 7 3 2016-01-03 16:14:24
145 Back to the Gate 435,480 278 - 9 - 1 - 19 - 3 286 2016-01-03 16:14:07
16,402 {Rose} 495,430 547 - 75 - 9 - 58 - 28 192 2016-01-03 16:12:57
13,655 The Brain of the Moon 725,905 521 - 43 - 6 - 24 - 18 435 2016-01-03 16:11:30
21,671 Air 33,620 34 - 8 - 0 - 20 - 4 19 2016-01-03 16:10:00
28,397 AAA 176,000 156 - 19 - 3 - 19 - 15 91 2016-01-03 16:09:40
21,397 Hatten Carnival! 218,540 153 - 10 - 0 - 20 - 8 138 2016-01-03 16:08:53
24,044 Hatten Carnival! 1,215 2 - 1 - 0 - 10 - 3 3 2016-01-03 16:08:18
10,152 Nice Nice Noise 330,705 190 - 35 - 2 - 21 - 1 223 2016-01-03 16:07:50
13,980 Solitude Sun 290,970 190 - 8 - 0 - 21 - 11 191 2016-01-03 16:06:22
11,046 Harry Potter Techno Remix 694,895 494 - 29 - 2 - 25 - 7 423 2016-01-03 16:05:27
12,131 Take Me Back 380,150 252 - 4 - 0 - 21 - 2 247 2016-01-03 16:03:35
11,084 Wrath 343,335 287 - 29 - 2 - 24 - 8 185 2016-01-03 16:02:39
13,819 Wrath 128,550 84 - 12 - 2 - 12 - 17 83 2016-01-03 16:01:41
13,540 Wrath 140,880 107 - 14 - 2 - 15 - 14 83 2016-01-03 16:01:14
9,780 Take Me Back 809,355 541 - 12 - 1 - 21 - 2 515 2016-01-03 16:00:28
4,046 Youkoso! Himitsu no Janbaraya! 775,645 679 - 38 - 3 - 4 - 9 393 2016-01-03 15:58:05
3,277 J219 (Ura-Rokkou Mix) 1,090,840 769 - 86 - 6 - 5 - 27 646 2016-01-03 15:56:00
16,602 DT Rabbit Blood Festival 906,455 576 - 19 - 0 - 21 - 3 591 2016-01-03 15:53:47
2,070 Fig Leaf Rag 1,187,180 1,075 - 41 - 3 - 1 - 10 585 2016-01-03 15:51:40
14,544 Fig Leaf Rag 898,210 576 - 11 - 1 - 21 - 8 585 2016-01-03 15:43:37
29,869 Incognito 331,130 209 - 11 - 1 - 22 - 4 220 2016-01-03 15:41:39
10,151 Troglodytic Epica 1,608,535 1,101 - 92 - 7 - 24 - 13 985 2016-01-03 15:40:53
20,151 Vertex BETA 425,375 345 - 27 - 4 - 22 - 10 235 2016-01-03 15:36:47
3,809 That is Fair [FC] 898,695 535 - 52 - 3 - 0 - 1 590 2016-01-03 15:35:20
1,422 Anubis [FC] 869,155 544 - 18 - 3 - 0 - 8 565 2016-01-03 15:33:35
947 Sifon [FC] 1,483,860 923 - 41 - 1 - 0 - 6 965 2016-01-03 15:31:21
6,349 Sifon 263,485 173 - 7 - 0 - 21 - 4 173 2016-01-03 15:28:30
10,514 {Satori} 31,650 22 - 4 - 0 - 21 - 2 25 2016-01-03 15:27:47
9,809 {Satori} 339,695 199 - 37 - 2 - 22 - 11 227 2016-01-03 15:27:37
10,577 {Satori} 18,600 16 - 0 - 0 - 20 - 0 16 2016-01-03 15:27:01
4,318 Hardcore of the North 1,368,915 909 - 80 - 9 - 1 - 11 847 2016-01-03 15:26:38
33,949 Hardcore of the North 3,100 5 - 0 - 0 - 15 - 0 5 2016-01-03 15:24:29
11,199 Hardcore of the North 1,116,110 747 - 53 - 5 - 23 - 23 698 2016-01-03 15:21:29
22,438 World of Dreams 564,725 453 - 20 - 1 - 22 - 8 317 2016-01-03 15:18:59
1,977 Coactive [FC] 1,238,645 774 - 29 - 2 - 0 - 7 805 2016-01-03 15:17:19
4,747 {Red Alert} 447,295 435 - 51 - 4 - 6 - 17 196 2016-01-03 15:14:43
2,834 Chaotic Sound [FC] 1,460,920 910 - 38 - 2 - 0 - 7 950 2016-01-03 15:13:01
36,743 Chaotic Sound 48,810 34 - 1 - 1 - 20 - 1 36 2016-01-03 15:10:40
24,799 {Firestorm} 401,915 233 - 45 - 4 - 21 - 16 268 2016-01-03 15:09:41
23,701 {Firestorm} 487,640 307 - 44 - 10 - 24 - 21 314 2016-01-03 15:08:40
4,493 The Games We Played [Part 2] 1,055,225 633 - 56 - 3 - 1 - 9 692 2016-01-03 15:07:01
3,421 Sensorium 1,597,655 1,312 - 96 - 11 - 5 - 20 851 2016-01-03 15:04:06
1,887 Victims and Martyrs [FC] 1,835,965 1,141 - 53 - 0 - 0 - 8 1,194 2016-01-03 15:00:34
11,031 Night Of Flight 1,266,930 815 - 26 - 4 - 21 - 9 818 2016-01-03 14:56:48
15,854 Night Of Flight 4,845 3 - 0 - 1 - 2 - 12 4 2016-01-03 14:54:36
11,013 Night Of Flight 1,274,880 813 - 52 - 0 - 21 - 3 820 2016-01-03 14:52:49
21,292 Visions (NRGyzd Remix) 413,970 266 - 8 - 0 - 21 - 1 272 2016-01-03 14:50:16
26,011 Visions (NRGyzd Remix) 217,165 143 - 5 - 0 - 22 - 2 144 2016-01-03 14:49:21
34,275 Lethal Injection 238,680 148 - 16 - 0 - 16 - 8 158 2016-01-03 14:48:16
14,479 NeoMAX 920,835 567 - 45 - 4 - 21 - 5 603 2016-01-03 14:47:28
1,355 In The Wind 441,090 328 - 62 - 6 - 19 - 40 250 2016-01-03 14:45:02
3,263 Radius ~Hacker No Yabou~ 1,317,360 952 - 93 - 5 - 3 - 8 769 2016-01-03 14:43:54
2,825 Techno Green Greens 635,680 467 - 82 - 12 - 2 - 38 357 2016-01-03 14:40:48
2,865 Vanishing Gungaroon 1,092,770 660 - 105 - 11 - 1 - 20 701 2016-01-03 14:39:26
852 Keep It Short 848,155 681 - 100 - 15 - 12 - 50 450 2016-01-03 14:35:30
1,800 Pulling Through 769,820 657 - 68 - 12 - 3 - 48 391 2016-01-03 14:33:06
6,510 Pulling Through 11,230 8 - 2 - 0 - 8 - 12 9 2016-01-03 14:30:59
1,606 Laser Shooter 598,955 644 - 108 - 11 - 9 - 38 218 2016-01-03 14:30:40
2,294 Remember 15 Years Ago... 1,141,940 792 - 77 - 9 - 3 - 20 686 2016-01-03 14:28:32
1,839 Smash Podcast 553,940 472 - 71 - 13 - 10 - 40 278 2016-01-03 14:25:19
2,194 Lover Reef 1,189,950 966 - 135 - 11 - 4 - 42 623 2016-01-03 14:23:50
801 Pokemon battle imaging - No.3 592,325 614 - 78 - 3 - 7 - 41 236 2016-01-03 14:20:42
680 NEXT STAGE!! 1,139,815 756 - 65 - 6 - 3 - 13 707 2016-01-03 14:18:46
1,799 Wind Waker Unplugged 765,370 695 - 96 - 8 - 30 - 21 366 2016-01-03 14:16:42
8,190 Wind Waker Unplugged 1,455 3 - 2 - 1 - 12 - 4 3 2016-01-03 14:14:18
8,057 Harukanaru Kokyou 508,010 303 - 36 - 2 - 21 - 7 338 2016-01-03 14:14:03
18,300 Harukanaru Kokyou 43,740 30 - 6 - 0 - 17 - 7 31 2016-01-03 14:13:09
1,115 PISSCORD 64,825 53 - 20 - 1 - 22 - 3 37 2016-01-03 14:12:47
20,286 Visions (NRGyzd Remix) 519,080 342 - 2 - 0 - 21 - 3 337 2016-01-03 14:12:13
10,795 600 AD in Piano 1,369,320 814 - 79 - 7 - 1 - 9 900 2016-01-02 16:06:51
39,218 600 AD in Piano 965 0 - 1 - 0 - 1 - 0 1 2016-01-02 16:04:03
16,803 B.B. - Euro - 210,115 129 - 9 - 0 - 1 - 0 137 2016-01-02 16:03:41
18,688 B.B. - Euro - 105,815 66 - 3 - 0 - 1 - 0 69 2016-01-02 16:03:18
18,810 B.B. - Euro - 102,860 57 - 10 - 2 - 1 - 2 69 2016-01-02 16:03:01
18,773 B.B. - Euro - 103,615 58 - 11 - 0 - 1 - 0 69 2016-01-02 16:02:44
18,714 B.B. - Euro - 105,025 64 - 4 - 1 - 1 - 1 69 2016-01-02 16:02:28
12,646 The Brain of the Moon 1,274,595 747 - 88 - 5 - 1 - 21 840 2016-01-02 15:59:22
20,894 {Blaze} 474,015 274 - 39 - 0 - 1 - 5 313 2016-01-02 15:56:58
24,092 Air 8,990 6 - 0 - 0 - 1 - 0 6 2016-01-02 15:55:57
24,092 Air 8,990 6 - 0 - 0 - 1 - 0 6 2016-01-02 15:55:49
22,308 Air 28,020 15 - 4 - 0 - 1 - 1 19 2016-01-02 15:55:40
22,303 Air 27,075 16 - 2 - 1 - 1 - 1 18 2016-01-02 15:55:31
22,830 Air 24,580 7 - 11 - 1 - 1 - 2 18 2016-01-02 15:55:23
22,303 Air 27,040 15 - 4 - 0 - 1 - 0 18 2016-01-02 15:55:14
22,303 Air 26,040 17 - 0 - 0 - 1 - 0 17 2016-01-02 15:55:05
22,273 Air 27,295 16 - 3 - 0 - 1 - 1 18 2016-01-02 15:54:56
22,303 Air 26,040 17 - 0 - 0 - 1 - 0 17 2016-01-02 15:54:52
22,357 Air 25,765 16 - 1 - 0 - 1 - 0 17 2016-01-02 15:54:39
22,405 Air 25,490 15 - 2 - 0 - 1 - 0 17 2016-01-02 15:54:30
21,679 Air 52,505 30 - 5 - 0 - 1 - 3 35 2016-01-02 15:54:21
22,525 Air 24,920 13 - 4 - 0 - 1 - 1 17 2016-01-02 15:54:11
22,303 Air 26,040 16 - 2 - 0 - 1 - 0 17 2016-01-02 15:54:01
22,357 Air 25,765 15 - 3 - 0 - 1 - 0 17 2016-01-02 15:53:52
29,559 Uber Rave 207,950 122 - 15 - 1 - 1 - 1 137 2016-01-02 15:53:34
30,448 Uber Rave 159,925 95 - 11 - 0 - 1 - 2 105 2016-01-02 15:53:04
17,642 Rondo Alla Turca 661,480 389 - 47 - 1 - 1 - 7 435 2016-01-02 15:52:31
45,840 4F73R M3 (FFR Edit) 390,895 245 - 9 - 0 - 1 - 1 254 2016-01-02 15:51:22
133 Back to the Gate 622,285 372 - 32 - 5 - 1 - 4 409 2016-01-02 15:49:59
166 Back to the Gate 46,080 28 - 8 - 0 - 14 - 9 33 2016-01-02 15:48:30
1,939 Something's Not Right 181,040 117 - 0 - 0 - 1 - 0 117 2015-12-31 14:12:41
2,331 Something's Not Right 75,675 48 - 1 - 0 - 0 - 0 49 2015-12-31 14:11:25
2,394 Something's Not Right 10,300 5 - 2 - 0 - 0 - 0 7 2015-12-31 14:10:57
2,331 Something's Not Right 75,675 48 - 1 - 0 - 0 - 0 49 2015-12-31 14:10:48
2,342 Something's Not Right 72,575 46 - 1 - 0 - 0 - 0 47 2015-12-31 14:10:19
2,402 Something's Not Right 4,155 2 - 0 - 1 - 0 - 0 3 2015-12-31 14:09:52
2,404 Something's Not Right 2,110 0 - 0 - 2 - 0 - 0 2 2015-12-31 14:09:46
2,331 Something's Not Right 75,930 49 - 0 - 0 - 0 - 1 49 2015-12-31 14:09:30
2,356 Something's Not Right 64,825 41 - 1 - 0 - 0 - 0 42 2015-12-31 14:09:02
2,331 Something's Not Right 75,675 48 - 1 - 0 - 0 - 0 49 2015-12-31 14:08:36
1,895 White Eyes 230,675 148 - 1 - 0 - 0 - 0 149 2015-12-31 14:07:32
1,187 Kirlian Isles I 162,475 104 - 1 - 0 - 0 - 0 105 2015-12-31 14:06:08
1,438 Kirlian Isles I 80,325 51 - 1 - 0 - 0 - 0 52 2015-12-31 14:04:51
10,054 Tell 425,975 274 - 1 - 0 - 0 - 0 275 2015-12-31 14:03:39
36,210 Tell 4,630 3 - 0 - 0 - 0 - 1 3 2015-12-31 14:01:53
36,236 Tell 2,550 0 - 2 - 0 - 0 - 0 2 2015-12-31 14:01:46
36,082 Tell 19,875 12 - 1 - 0 - 0 - 0 13 2015-12-31 14:01:41
111,698 Too Tight 36,925 23 - 1 - 0 - 0 - 0 24 2015-12-31 14:01:12
3,424 Disconnected [Inspector K] 196,575 126 - 1 - 0 - 0 - 0 127 2015-12-31 14:00:43
3,576 Disconnected [Inspector K] 9,025 5 - 1 - 0 - 0 - 0 6 2015-12-31 13:59:55
16,680 Sine Reality II 246,175 158 - 1 - 0 - 0 - 0 159 2015-12-31 13:59:39
52,690 London Bridges 66,375 42 - 1 - 0 - 0 - 0 43 2015-12-31 13:58:07
3,503 Disconnected [Inspector K] 89,625 57 - 1 - 0 - 0 - 0 58 2015-12-31 13:57:16
3,581 Disconnected [Inspector K] 4,375 2 - 1 - 0 - 0 - 0 3 2015-12-31 13:56:51
3,551 Disconnected [Inspector K] 38,730 25 - 0 - 0 - 0 - 1 25 2015-12-31 13:56:45
3,591 Disconnected [Inspector K] 3,245 2 - 1 - 0 - 3 - 10 3 2015-12-31 13:55:42
6,462 Sine Reality II 328,325 211 - 1 - 0 - 0 - 0 212 2015-12-30 16:21:21
3,536 Disconnected [Inspector K] 53,975 34 - 1 - 0 - 0 - 0 35 2015-12-30 16:19:00
51,624 London Bridges 95,825 61 - 1 - 0 - 0 - 0 62 2015-12-30 16:18:38
10,845 Sine Reality II 297,325 191 - 1 - 0 - 0 - 0 192 2015-12-30 16:16:58
1 Lucid Quazar [AAA] [FC] 296,050 191 - 0 - 0 - 0 - 0 191 2015-12-30 16:14:53
27,468 Lucid Quazar 1,275 0 - 1 - 0 - 0 - 0 1 2015-12-30 16:13:22
27,339 Lucid Quazar 2,825 1 - 1 - 0 - 0 - 0 2 2015-12-30 16:13:15
3,447 Disconnected [Inspector K] 153,175 98 - 1 - 0 - 0 - 0 99 2015-12-30 16:12:39
3,592 Disconnected [Inspector K] 1,275 0 - 1 - 0 - 0 - 0 1 2015-12-30 16:12:00
3,536 Disconnected [Inspector K] 53,975 34 - 1 - 0 - 0 - 0 35 2015-12-30 16:11:54
51,938 London Bridges 86,525 55 - 1 - 0 - 0 - 0 56 2015-12-30 16:11:32
13,647 Sine Reality II 275,625 177 - 1 - 0 - 0 - 0 178 2015-12-30 16:10:34
21,999 Lucid Quazar 97,375 62 - 1 - 0 - 0 - 0 63 2015-12-30 16:08:51
17,218 Lucid Quazar 184,175 118 - 1 - 0 - 0 - 0 119 2015-12-30 16:08:14
3,301 Disconnected [Inspector K] 474,025 305 - 1 - 0 - 0 - 0 306 2015-12-30 16:06:52
3,447 Disconnected [Inspector K] 153,175 98 - 1 - 0 - 0 - 0 99 2015-12-30 16:05:08
3,568 Disconnected [Inspector K] 13,930 9 - 0 - 0 - 0 - 1 9 2015-12-30 16:04:29
3,553 Disconnected [Inspector K] 36,925 23 - 1 - 0 - 0 - 0 24 2015-12-30 16:04:18
3,581 Disconnected [Inspector K] 4,375 2 - 1 - 0 - 0 - 0 3 2015-12-30 16:03:52
3,449 Betrayal of Fate 787,655 788 - 136 - 11 - 43 - 71 331 2015-12-30 15:59:48
3,649 Card House Dreamer 502,940 583 - 68 - 6 - 30 - 22 173 2015-12-30 15:57:02
5,162 World of Dreams 997,285 947 - 90 - 3 - 16 - 26 457 2015-12-30 15:54:51
44,799 World of Dreams 6,510 8 - 0 - 0 - 19 - 0 8 2015-12-30 15:52:16
22,468 The Games We Played [Part 4] 308,400 240 - 39 - 5 - 20 - 20 172 2015-12-30 15:52:01
21,701 {Blaze} 410,960 253 - 23 - 1 - 21 - 3 272 2015-12-30 15:50:42
4,402 Duality 1,233,130 896 - 126 - 16 - 8 - 36 708 2015-12-30 15:49:43
10,494 Duality 528,245 323 - 34 - 3 - 22 - 5 348 2015-12-30 15:47:17
18,090 Euro Freak 46,955 27 - 6 - 1 - 4 - 18 32 2015-12-30 15:45:50
7,481 For Your Love 778,065 447 - 64 - 13 - 22 - 14 521 2015-12-30 15:44:58
8,458 For Your Love 411,580 245 - 27 - 3 - 18 - 9 275 2015-12-30 15:43:26
10,716 Infernoplex 768,795 618 - 66 - 1 - 29 - 16 420 2015-12-30 15:42:24
12,514 {Arabian Assassin} 337,645 219 - 55 - 6 - 28 - 29 211 2015-12-30 15:40:22
1,785 Galaxy9 669,495 388 - 64 - 3 - 21 - 8 445 2015-12-30 15:39:37
2,927 Farewell, My Little Basquiat 697,625 558 - 113 - 12 - 11 - 30 363 2015-12-30 15:37:50
1,573 Smile Song 202,535 177 - 23 - 2 - 23 - 6 106 2015-12-30 15:35:06
23,518 Mercury Lamp 799,110 482 - 49 - 1 - 20 - 16 527 2015-12-30 15:29:46
5,587 Flying High 1,359,305 1,419 - 145 - 16 - 62 - 34 558 2015-12-29 15:15:36
20,538 Flying High 2,755 4 - 3 - 0 - 17 - 0 5 2015-12-29 15:12:14
1,709 asterisk 576,300 412 - 69 - 3 - 26 - 19 339 2015-12-29 15:11:57
12,884 Rock Paper Snippers 288,430 186 - 12 - 0 - 9 - 19 186 2015-12-29 15:10:36
13,174 Devotion and Desire 592,440 458 - 19 - 1 - 14 - 20 340 2015-12-29 15:09:30
15,728 Devotion and Desire 364,780 239 - 2 - 0 - 20 - 1 239 2015-12-29 15:08:06
11,651 Uber Rave v2 389,940 368 - 33 - 3 - 14 - 18 183 2015-12-29 15:06:39
16,257 Uber Rave v2 4,765 7 - 3 - 0 - 19 - 1 6 2015-12-29 15:05:35
11,639 Uber Rave v2 432,625 364 - 45 - 2 - 22 - 12 227 2015-12-29 15:03:11
15,598 The Entertainer 413,775 266 - 11 - 0 - 21 - 2 271 2015-12-29 15:01:46
14,635 Fig Leaf Rag 747,500 556 - 25 - 1 - 23 - 5 442 2015-12-29 15:00:32
18,115 The Games We Played [Part 5] 1,276,710 974 - 125 - 11 - 31 - 18 716 2015-12-29 05:12:37
5,368 Indulgence 515,145 399 - 41 - 2 - 21 - 9 291 2015-12-29 05:08:29
2,008 Grandolin 819,620 598 - 67 - 5 - 6 - 6 474 2015-12-29 05:07:13
408 Eirin's Clinic that People Queue Up For 806,420 607 - 58 - 2 - 1 - 9 457 2015-12-29 05:04:51
791 Eirin's Clinic that People Queue Up For 20,190 9 - 10 - 0 - 21 - 0 19 2015-12-29 05:03:16
655 Eirin's Clinic that People Queue Up For 338,705 236 - 33 - 0 - 23 - 2 207 2015-12-29 05:01:08
1,433 TizAshura 403,830 406 - 92 - 10 - 12 - 30 159 2015-12-29 05:00:14
643 Tied The Room Together 316,250 271 - 72 - 8 - 18 - 23 153 2015-12-29 04:58:47
614 Pull in Pull in Popped Syo Call up Arrest 440,715 488 - 102 - 11 - 38 - 28 156 2015-12-29 04:57:35
745 Tied The Room Together 298,925 256 - 74 - 9 - 30 - 21 147 2015-12-29 04:55:50
13,275 Crazy Hair Day 335,560 208 - 16 - 0 - 20 - 2 223 2015-12-29 04:54:35
5,359 The Divine Suicide of K 687,180 886 - 266 - 32 - 89 - 72 154 2015-12-28 16:03:39
2,550 Beauty Is In The Eyes Of The Beerholder 1,321,450 834 - 59 - 1 - 11 - 6 850 2015-12-28 16:00:24
22,523 Beauty Is In The Eyes Of The Beerholder 9,395 12 - 10 - 3 - 26 - 3 8 2015-12-28 15:57:55
1,161 Bouff 636,055 784 - 124 - 7 - 19 - 37 177 2015-12-28 15:56:56
1,847 Rock Paper Snippers 1,342,935 1,411 - 82 - 5 - 2 - 16 545 2015-12-28 15:54:41
2,583 Hybrid 651,495 834 - 53 - 8 - 12 - 25 182 2015-12-28 15:43:56
571 BEER! [Psychostick] [FC] 1,108,995 676 - 44 - 5 - 0 - 9 725 2015-12-28 15:40:20
1,943 BEER! [Psychostick] 83,470 56 - 8 - 0 - 21 - 1 57 2015-12-28 15:38:05
2,224 MegaScorcher 770,735 763 - 70 - 9 - 4 - 21 333 2015-12-28 15:37:28
12,472 Devotion and Desire 929,040 571 - 39 - 1 - 21 - 14 611 2015-12-28 15:35:16
2,173 Dimensions 1,322,185 1,580 - 131 - 8 - 22 - 73 425 2015-12-28 15:31:36
1,631 Destination Unknown 608,830 625 - 159 - 21 - 44 - 58 235 2015-12-28 15:27:17
10,261 Szamar Madar 519,215 579 - 90 - 7 - 29 - 19 185 2015-12-28 15:25:06
12,079 Szamar Madar 396,305 290 - 34 - 1 - 24 - 8 235 2015-12-28 15:23:00
9,688 State of Emergency 162,810 152 - 27 - 1 - 29 - 14 81 2015-12-28 15:21:54
16,794 The Brain of the Moon 288,365 172 - 21 - 4 - 23 - 5 195 2015-12-28 15:20:57
12,244 Monstrous Turtles! 355,175 286 - 53 - 2 - 25 - 3 191 2015-12-28 15:19:52
730 NEXT STAGE!! 711,825 746 - 72 - 5 - 7 - 19 284 2015-12-28 15:18:15
101 Back to the Gate 435,980 276 - 17 - 1 - 21 - 2 286 2015-12-28 15:16:09
117 Back to the Gate 24,525 19 - 1 - 0 - 20 - 0 20 2015-12-28 15:15:03
1,128 Never Enough (xKrmix) 567,815 498 - 69 - 6 - 31 - 39 285 2015-12-28 12:12:16
1,423 Never Enough (xKrmix) 110,690 71 - 4 - 0 - 14 - 6 75 2015-12-28 12:10:07
1,190 Yukitsuki-yashou 876,125 939 - 117 - 2 - 31 - 50 338 2015-12-28 12:09:20
3,279 Yukitsuki-yashou 490 3 - 0 - 0 - 10 - 3 2 2015-12-28 12:06:25
3,249 Yukitsuki-yashou 18,325 15 - 1 - 0 - 20 - 0 16 2015-12-28 12:06:19
5,772 Betrayal of Fate 423,495 324 - 15 - 2 - 22 - 6 248 2015-12-28 12:05:46
5,032 Hyper Pressure 1,004,535 995 - 100 - 1 - 15 - 31 435 2015-12-28 12:04:08
15,214 Hyper Pressure 21,125 14 - 5 - 0 - 19 - 3 18 2015-12-28 12:01:44
13,747 Troglodytic Epica 1,489,970 949 - 63 - 9 - 24 - 18 958 2015-12-28 12:00:39
1,962 Find a Pet (Candy Mix) 555,935 423 - 60 - 5 - 29 - 25 316 2015-12-28 11:56:29
3,447 The Final Fantasy 539,395 553 - 98 - 5 - 14 - 32 213 2015-12-28 11:55:02
725 Taking Wing 502,260 463 - 143 - 7 - 36 - 47 220 2015-12-28 11:52:38
2,719 Lady's Cake 322,780 287 - 65 - 3 - 9 - 16 150 2015-12-28 11:50:54
917 beyond the summer sky ~Maid To Order~ 755,015 569 - 60 - 7 - 4 - 29 427 2015-12-28 08:34:45
59 Back to the Gate 736,685 789 - 68 - 1 - 6 - 8 286 2015-12-28 08:32:34
19 Back to the Gate 560,190 549 - 42 - 6 - 24 - 10 254 2015-12-24 14:25:32
9,754 Szamar Madar 922,315 648 - 39 - 6 - 22 - 16 562 2015-12-22 16:25:07
3,511 Hajnal 1,082,870 1,432 - 406 - 48 - 114 - 184 220 2015-12-22 16:23:13
4,033 Lawn Wake IV (Black) 696,440 825 - 155 - 15 - 64 - 46 220 2015-12-22 16:19:18
11,631 Szamar Madar 460,670 373 - 36 - 6 - 21 - 10 252 2015-12-22 16:16:28
3,537 IDOL (Danpa with Posing Guys ver.) 709,085 914 - 80 - 7 - 14 - 33 189 2015-12-22 16:15:02
2,037 NEXT STAGE!! 425,675 263 - 20 - 1 - 21 - 1 282 2015-12-22 16:12:45
2,681 Orchestral Angels 686,795 427 - 27 - 2 - 21 - 4 451 2015-12-22 16:11:39
2,848 Orchestral Angels 11,395 8 - 2 - 1 - 11 - 10 10 2015-12-22 16:10:24
1,618 Oasis -Long Version- 1,352,410 1,045 - 65 - 3 - 20 - 9 766 2015-12-22 16:10:03
2,257 Oasis -Long Version- 202,620 128 - 10 - 0 - 21 - 1 136 2015-12-22 16:06:50
16,599 AAA 553,475 617 - 85 - 10 - 30 - 25 200 2015-12-22 16:05:34
23,399 Kirby's Dream Land 438,105 451 - 54 - 5 - 33 - 42 186 2015-12-22 16:03:53
5,789 Force of Light 1,021,390 916 - 133 - 17 - 8 - 22 483 2015-12-22 16:02:28
4,140 Rainbow Road [Zorsy] 181,825 115 - 18 - 1 - 17 - 8 119 2015-12-22 15:58:48
5,044 Rainbow Road [Zorsy] 58,325 37 - 5 - 2 - 21 - 0 43 2015-12-22 15:58:13
2,014 Waltz In The Rain 528,090 655 - 104 - 18 - 25 - 50 147 2015-12-22 15:57:43
596 Walking on Water 892,855 916 - 130 - 13 - 13 - 19 357 2015-12-22 15:55:29
436 Girl Directions 742,235 582 - 33 - 2 - 3 - 6 414 2015-12-22 15:52:38
1,335 Girl Directions 19,310 12 - 5 - 3 - 15 - 9 16 2015-12-22 15:51:09
3,635 00.01 562,960 597 - 96 - 10 - 6 - 24 210 2015-12-22 15:50:50
16,375 00.01 58,155 34 - 5 - 2 - 9 - 12 41 2015-12-22 15:49:25
16,267 00.01 59,190 37 - 4 - 2 - 17 - 5 43 2015-12-22 15:49:12
1,169 Card House Dreamer 941,225 1,106 - 75 - 8 - 12 - 21 316 2015-12-22 15:48:50
5,723 Card House Dreamer 78,945 80 - 3 - 0 - 22 - 3 41 2015-12-22 15:46:09
2,218 Bricks [Light] 988,080 623 - 27 - 5 - 9 - 24 641 2015-12-22 15:45:40
412 Once Upon A December 575,710 571 - 72 - 4 - 4 - 6 243 2015-12-22 15:43:53
1,639 asterisk 612,095 444 - 35 - 0 - 21 - 11 365 2015-12-22 15:41:45
1,212 Let's Go 842,285 518 - 48 - 3 - 28 - 15 553 2015-12-22 15:40:16
14,467 Hatten Carnival! 528,560 486 - 33 - 1 - 25 - 6 260 2015-12-22 15:38:24
5,813 {Firestorm} 751,715 855 - 128 - 15 - 12 - 42 250 2015-12-22 15:11:27
4,759 Harry Potter Techno Remix 766,445 561 - 37 - 2 - 7 - 11 450 2015-12-22 15:08:43
2,001 Chaoz Fantasy 775,455 845 - 90 - 7 - 15 - 39 291 2015-12-22 15:06:50
2,571 SYNiC 792,325 782 - 67 - 12 - 4 - 31 345 2015-12-22 15:04:24
656 Lost [Addictia] 798,855 654 - 38 - 9 - 11 - 19 432 2015-12-22 15:02:11
2,089 Delta Beat (0 Vector Mix) 1,203,690 1,018 - 108 - 10 - 6 - 30 616 2015-12-22 14:59:55
142 Galaxy in Toybox [Light] 876,425 695 - 31 - 4 - 1 - 13 486 2015-12-22 14:56:55
1,287 Ochitsukeruwakenaiwayo! [Standard] 606,590 582 - 56 - 14 - 4 - 22 272 2015-12-22 14:54:22
3,870 Ochitsukeruwakenaiwayo! [Standard] 23,295 17 - 2 - 1 - 18 - 4 19 2015-12-22 14:52:49
1,113 Alpha Device 622,230 570 - 41 - 3 - 7 - 27 300 2015-12-22 14:52:23
4,049 Solitude Sun 534,030 609 - 93 - 7 - 16 - 46 179 2015-12-22 14:50:22
883 Galaxy9 733,105 533 - 52 - 9 - 2 - 11 426 2015-12-22 14:48:20
775 Star Wars Anthology 1,274,445 1,108 - 152 - 21 - 19 - 51 629 2015-12-22 14:46:12
2,755 Legend of the Starfighter 844,930 879 - 76 - 10 - 5 - 21 342 2015-12-22 14:42:16
2,868 Vanity Angel (Seraphim Mix) 603,225 664 - 101 - 18 - 14 - 20 214 2015-12-22 14:39:10
2,531 Virtual Emotion 836,245 687 - 50 - 7 - 4 - 25 446 2015-12-22 14:36:54
2,720 Synful Sub 1,284,755 1,205 - 107 - 8 - 10 - 38 596 2015-12-22 14:19:09
596 Welcome 2 Omnicore 349,555 354 - 58 - 5 - 7 - 10 141 2015-12-22 14:15:51
1,501 Welcome 2 Omnicore 13,710 12 - 1 - 1 - 20 - 1 13 2015-12-22 14:14:38
3,252 Snowball Fight 735,925 702 - 48 - 3 - 4 - 15 338 2015-12-22 14:14:12
15,722 Snowball Fight 187,345 123 - 13 - 0 - 22 - 3 123 2015-12-22 14:12:26
7,092 Glove Stage - Ultra Sweden 170,730 162 - 39 - 7 - 26 - 21 79 2015-12-22 14:11:41
589 Reaching for the Floor 903,990 1,181 - 150 - 12 - 21 - 48 220 2015-12-22 14:08:22
388 White book 749,165 452 - 47 - 2 - 1 - 8 488 2015-12-22 14:04:46
674 Dim Wood 723,380 737 - 95 - 15 - 8 - 22 294 2015-12-22 14:02:52
4,863 Troglodytic Epica 1,728,945 1,276 - 181 - 16 - 9 - 36 980 2015-12-22 13:58:30
957 Find a Pet (Candy Mix) 840,735 897 - 72 - 11 - 8 - 27 330 2015-12-22 13:50:17
2,890 X-Dreamer Final Cut [FC] 934,165 579 - 28 - 1 - 0 - 2 608 2015-12-22 13:44:09
3,204 The Final Fantasy 525,360 565 - 85 - 11 - 9 - 29 194 2015-12-22 13:42:04
16,595 X-Dreamer Final Cut 752,025 481 - 43 - 4 - 21 - 3 482 2015-12-22 13:39:40
53,843 X-Dreamer Final Cut 48,515 31 - 5 - 0 - 19 - 1 36 2015-12-22 13:37:58
791 Taking Wing 530,275 473 - 63 - 4 - 38 - 32 265 2015-12-22 13:37:32
1,735 Taking Wing 4,035 3 - 2 - 1 - 10 - 6 5 2015-12-22 13:36:07
1,153 Taking Wing 466,540 314 - 35 - 3 - 25 - 10 292 2015-12-22 10:22:24
1,673 Taking Wing 120,525 76 - 7 - 0 - 20 - 0 83 2015-12-22 10:17:24
1,736 Taking Wing 3,085 2 - 2 - 1 - 8 - 7 4 2015-12-22 10:16:58
1,682 Taking Wing 96,790 64 - 4 - 0 - 21 - 0 67 2015-12-22 10:16:51
2,276 Lady's Cake 399,230 310 - 48 - 2 - 4 - 17 217 2015-12-22 10:16:17
4,556 Lady's Cake 353,795 259 - 25 - 2 - 24 - 10 212 2015-12-22 10:14:41
12,256 Lady's Cake 2,260 1 - 2 - 0 - 2 - 11 2 2015-12-22 10:13:41
11,597 Lady's Cake 74,235 53 - 3 - 0 - 18 - 8 50 2015-12-22 10:13:35
1,051 beyond the summer sky ~Maid To Order~ 702,690 556 - 64 - 6 - 14 - 35 384 2015-12-22 10:13:04
4,654 beyond the summer sky ~Maid To Order~ 2,985 4 - 1 - 0 - 11 - 4 4 2015-12-22 10:11:05
1,635 Crazy Hair Day 1,389,280 862 - 42 - 0 - 1 - 3 904 2015-12-22 10:10:47
2,215 In The Wind 250,095 236 - 54 - 5 - 43 - 25 119 2015-12-22 10:07:16
10,024 Harukanaru Kokyou 361,080 214 - 33 - 3 - 22 - 2 241 2015-12-22 10:06:28
5 Syncopatriarch 459,330 727 - 600 - 88 - 492 - 242 47 2015-12-22 10:05:15
7,497 {Rose} 874,705 1,043 - 204 - 23 - 31 - 35 254 2015-12-21 15:58:13
19 Yay Yeah 522,800 653 - 152 - 18 - 38 - 68 134 2015-12-21 15:55:26
642 DKC2 Symphonic Rock Remix [FC] 939,730 603 - 4 - 0 - 0 - 1 607 2015-12-20 14:51:45
8,358 DKC2 Symphonic Rock Remix 77,225 53 - 1 - 0 - 20 - 0 54 2015-12-20 14:49:33
3,024 Metropolis Zone [FC] 970,025 599 - 31 - 2 - 0 - 3 632 2015-12-20 14:49:00
13 Noushou Sakuretsu Girl 219,650 248 - 78 - 16 - 46 - 41 76 2015-12-20 14:47:19
43,710 Go Go Go Power Rangers 139,880 89 - 2 - 0 - 2 - 0 91 2015-12-20 11:53:44
23,661 The Brain of the Moon 32,415 17 - 5 - 0 - 1 - 0 22 2015-12-20 11:53:11
19,972 The Brain of the Moon 98,770 59 - 6 - 0 - 1 - 1 65 2015-12-20 11:53:04
14,258 The Brain of the Moon 670,160 389 - 44 - 12 - 1 - 12 444 2015-12-20 11:52:29
1,461 Hoot (AREIA Remix) 594,680 361 - 27 - 1 - 1 - 2 389 2015-12-20 11:51:20
1,058 Electric Obsession [FC] 921,195 569 - 30 - 1 - 0 - 3 600 2015-12-20 11:49:26
30,491 H a l o g e n (FFR edit) 510,320 318 - 14 - 0 - 1 - 6 332 2015-12-20 11:47:20
18,862 Hatten Carnival! 603,095 374 - 17 - 2 - 1 - 4 393 2015-12-20 11:45:40
21,851 Hatten Carnival! 174,975 109 - 5 - 0 - 1 - 2 114 2015-12-20 11:44:35
4,313 Moonbeam [FC] 1,354,145 822 - 62 - 1 - 0 - 3 885 2015-12-20 11:43:33
30,148 The Games We Played [Part 4] 268,910 164 - 11 - 1 - 1 - 3 176 2015-12-20 11:40:11
37,474 World of Dreams 252,945 156 - 9 - 0 - 1 - 1 165 2015-12-20 11:39:26
2,035 Heavy Danger [FC] 700,485 430 - 25 - 2 - 0 - 0 457 2015-12-20 11:38:30
2,331 Sail AwaY 739,550 453 - 28 - 2 - 1 - 5 483 2015-12-20 11:36:44
7,377 Courage 1,106,515 687 - 33 - 0 - 1 - 5 720 2015-12-20 11:35:12
2,153 Pupil of Frenzy [FC] 2,210,130 1,382 - 51 - 3 - 0 - 8 1,436 2015-12-20 11:32:46
13,099 Pupil of Frenzy 18,740 9 - 4 - 0 - 1 - 0 13 2015-12-20 11:28:51
9,503 TAKECORE OF YOURSELF 370,935 229 - 12 - 1 - 1 - 3 242 2015-12-20 11:28:23
4,158 Mute City Remix 520,870 310 - 32 - 0 - 1 - 6 342 2015-12-20 11:26:25
4,550 Mute City Remix 25,140 15 - 2 - 0 - 2 - 2 17 2015-12-20 11:25:38
4,348 Mute City Remix 270,510 173 - 8 - 0 - 22 - 1 180 2015-12-20 11:25:02
4,520 Mute City Remix 60,415 42 - 3 - 0 - 21 - 0 43 2015-12-20 11:24:34
4,578 Mute City Remix 16,915 11 - 5 - 0 - 21 - 0 16 2015-12-20 11:24:23
3,473 Summer -Speedy Mix- 826,650 678 - 72 - 16 - 11 - 26 437 2015-12-20 11:23:17
3,345 Kaleidoscope 608,325 632 - 82 - 7 - 9 - 21 241 2015-12-20 11:21:06
5,077 Legendary Etude 1,050,380 1,099 - 191 - 17 - 19 - 32 399 2015-12-20 11:18:32
7,324 The Games We Played [Part 2] 834,930 600 - 79 - 5 - 9 - 14 486 2015-12-20 11:13:35
11,830 Ninja Turtles Theme 428,210 248 - 37 - 3 - 21 - 1 288 2015-12-20 11:10:49
7,145 Tension 578,185 728 - 118 - 11 - 83 - 27 171 2015-12-20 11:09:52
29,293 Tension 41,435 27 - 5 - 0 - 15 - 7 30 2015-12-20 11:08:00
1,527 We Will Fly 723,695 685 - 96 - 7 - 20 - 32 327 2015-12-20 11:06:15
2,006 We Will Fly 561,540 583 - 76 - 10 - 30 - 13 229 2015-12-20 10:58:19
5,943 Secrets and Lies 612,030 665 - 115 - 11 - 19 - 53 221 2015-12-20 10:55:46
1,245 beyond the summer sky ~Maid To Order~ 596,640 516 - 93 - 7 - 24 - 34 295 2015-12-20 10:53:36
4,625 beyond the summer sky ~Maid To Order~ 16,620 10 - 4 - 2 - 9 - 15 13 2015-12-20 10:51:36
777 Dim Wood 545,305 690 - 131 - 8 - 26 - 30 138 2015-12-20 10:51:15
15,726 Air 1,426,590 1,058 - 115 - 5 - 29 - 11 822 2015-12-17 16:41:12
8,955 Frozen Rain 879,955 904 - 59 - 6 - 24 - 18 374 2015-12-17 16:38:20
18,065 Frozen Rain 12,365 11 - 3 - 0 - 21 - 0 12 2015-12-17 16:35:40
23,483 HELLBEAT 147,640 143 - 84 - 14 - 58 - 45 64 2015-12-17 16:35:00
42 Dandelion Sparkle!! 413,975 594 - 344 - 51 - 225 - 169 63 2015-12-16 06:00:21
3,699 Splash Beats 865,760 715 - 94 - 18 - 15 - 34 451 2015-12-15 16:05:44
12,310 Nova Pulser 318,620 266 - 45 - 7 - 26 - 19 168 2015-12-15 16:01:53
12,868 Horizon Remix 407,035 245 - 23 - 4 - 20 - 3 272 2015-12-15 16:00:27
18,844 {Blaze} 561,700 380 - 30 - 0 - 21 - 2 351 2015-12-15 15:59:25
13,029 Air 1,587,685 1,344 - 166 - 19 - 47 - 32 817 2015-12-15 15:57:51
5,565 B.B. - Euro - 901,490 1,056 - 154 - 16 - 38 - 38 290 2015-12-15 15:54:12
17,300 {Rose} 458,460 447 - 38 - 4 - 38 - 14 214 2015-12-15 15:51:31
19,184 Air 454,995 292 - 37 - 4 - 22 - 9 291 2015-12-15 15:50:22
21,523 Air 97,100 53 - 12 - 0 - 1 - 2 65 2015-12-15 15:49:07
5,497 Flying High 2,393,290 1,429 - 137 - 5 - 1 - 15 1,570 2015-12-15 15:48:41
13,897 Flying High 139,580 66 - 27 - 3 - 1 - 0 96 2015-12-15 15:40:10
18,817 Flying High 9,715 4 - 3 - 0 - 1 - 0 7 2015-12-15 15:39:55
5,132 Hajnal 450,165 419 - 111 - 20 - 31 - 65 199 2015-12-15 15:39:23
7,370 Hajnal 8,540 7 - 2 - 0 - 12 - 7 8 2015-12-15 15:38:12
20,351 Air 122,260 130 - 23 - 5 - 18 - 13 50 2015-12-15 15:37:53
8,960 SYNiC 242,270 145 - 14 - 0 - 1 - 1 159 2015-12-15 15:36:46
8,021 Delta Beat (0 Vector Mix) 444,260 276 - 14 - 0 - 1 - 4 289 2015-12-15 15:36:05
9,908 Delta Beat (0 Vector Mix) 187,625 114 - 8 - 1 - 1 - 1 123 2015-12-15 15:35:11
4,001 Grandolin 809,250 485 - 43 - 3 - 1 - 9 531 2015-12-15 15:34:31
6,342 dr0p 718,610 442 - 25 - 3 - 1 - 11 469 2015-12-15 15:32:40
9,810 dr0p 49,015 31 - 1 - 0 - 1 - 0 32 2015-12-15 15:31:35
9,467 dr0p 165,990 104 - 4 - 0 - 1 - 0 108 2015-12-15 15:31:11
4,330 Chaoz Fantasy 1,069,510 648 - 49 - 3 - 1 - 11 700 2015-12-15 15:30:34
1,065 Asteroid Run [FC] 1,634,395 1,013 - 48 - 3 - 0 - 6 1,064 2015-12-15 15:28:34
742 Turn the Light 632,450 370 - 40 - 8 - 1 - 9 418 2015-12-15 15:26:07
991 Turn the Light 181,405 109 - 10 - 1 - 1 - 2 119 2015-12-15 15:24:47
917 Lost [Addictia] 948,800 571 - 48 - 4 - 1 - 18 622 2015-12-15 15:24:10
845 PUNK FLUFFY UNICORNS DANCING ON RAINBOWS 129,670 79 - 6 - 0 - 1 - 6 85 2015-12-15 15:22:14
634 Eirin's Clinic that People Queue Up For 437,550 271 - 14 - 0 - 1 - 2 285 2015-12-15 15:21:48
14,080 Solitude Sun 292,300 179 - 12 - 0 - 1 - 7 191 2015-12-15 15:20:45
3,125 Alpha Device 250,975 145 - 20 - 1 - 1 - 1 166 2015-12-15 15:19:48
3,500 Alpha Device 1,240 1 - 0 - 0 - 1 - 0 1 2015-12-15 15:18:59
2,895 Ochitsukeruwakenaiwayo! [Standard] 612,235 359 - 40 - 5 - 1 - 9 404 2015-12-15 15:18:37
3,963 Ochitsukeruwakenaiwayo! [Standard] 10,265 6 - 1 - 0 - 1 - 0 7 2015-12-15 15:17:31
156 Galaxy in Toybox [Light] [FC] 1,117,780 677 - 53 - 1 - 0 - 10 731 2015-12-15 15:17:20
2,235 Star Wars Anthology 964,045 592 - 36 - 1 - 1 - 10 629 2015-12-15 15:15:01
813 Galaxy9 [FC] 906,570 538 - 53 - 5 - 0 - 9 596 2015-12-15 15:13:03
1,254 Walking on Water 538,485 319 - 34 - 1 - 1 - 3 354 2015-12-15 15:11:09
526 Disc Jockey MIKE [FC] 940,880 563 - 52 - 2 - 0 - 9 617 2015-12-15 15:10:02
1,271 Disc Jockey MIKE 77,605 48 - 3 - 0 - 2 - 0 51 2015-12-15 15:08:16
1,668 Pokemon battle imaging - No.3 653,535 399 - 23 - 6 - 1 - 13 428 2015-12-15 15:07:45
315 Galaxy in Toybox [Light] 629,100 360 - 47 - 11 - 1 - 6 418 2015-12-15 15:06:27
339 Galaxy in Toybox [Light] 369,315 210 - 33 - 2 - 1 - 3 245 2015-12-15 15:05:12
327 Galaxy in Toybox [Light] 488,810 280 - 40 - 4 - 1 - 5 324 2015-12-15 15:04:24
339 Galaxy in Toybox [Light] 357,970 222 - 12 - 0 - 1 - 6 233 2015-12-15 15:03:21
2,259 Pokemon battle imaging - No.3 414,665 259 - 9 - 2 - 1 - 3 270 2015-12-15 14:51:56
341 Galaxy in Toybox [Light] 362,090 193 - 48 - 2 - 1 - 3 243 2015-12-15 14:50:55
330 Galaxy in Toybox [Light] 446,170 267 - 24 - 2 - 1 - 4 293 2015-12-15 14:50:06
383 Galaxy in Toybox [Light] 5,395 3 - 0 - 1 - 1 - 0 4 2015-12-15 14:48:43
6,868 Sifon 201,315 123 - 7 - 2 - 1 - 3 132 2015-12-15 14:48:33
9,947 {Satori} 258,990 147 - 23 - 3 - 1 - 2 172 2015-12-15 14:47:59
327 Galaxy in Toybox [Light] 427,305 283 - 32 - 3 - 23 - 9 270 2015-12-15 14:47:16
17,868 DT Rabbit Blood Festival 778,345 477 - 30 - 1 - 1 - 0 508 2015-12-15 14:12:30
3,180 NeoMAX [FC] 1,075,845 661 - 38 - 3 - 0 - 16 702 2015-12-15 14:10:33
20,077 Legend of the Starfighter 271,025 163 - 13 - 2 - 1 - 0 178 2015-12-15 14:08:02
12,789 Air Breeze 349,740 208 - 21 - 1 - 1 - 9 230 2015-12-15 14:07:13
13,656 Air Breeze 287,280 153 - 38 - 2 - 1 - 6 193 2015-12-15 14:06:43
19,523 Horizon Remix 178,370 112 - 4 - 0 - 1 - 1 116 2015-12-15 14:06:05
28,543 Horizon Remix 43,540 25 - 4 - 0 - 1 - 0 29 2015-12-15 14:05:37
19,812 Horizon Remix 177,415 110 - 4 - 3 - 1 - 2 116 2015-12-15 14:05:17
16,414 Horizon Remix 228,925 139 - 10 - 1 - 1 - 1 150 2015-12-15 14:04:39
8,724 Vanity Angel (Seraphim Mix) 409,705 238 - 30 - 3 - 1 - 15 271 2015-12-15 14:03:49
1,927 Ding Dong Song v2 498,310 312 - 11 - 1 - 1 - 3 324 2015-12-15 14:02:59
2,332 Ding Dong Song v2 3,515 0 - 3 - 0 - 1 - 0 3 2015-12-15 14:01:57
2,330 Ding Dong Song v2 7,440 5 - 0 - 0 - 1 - 0 5 2015-12-15 14:01:51
1,013 In Aisles 1,175,205 717 - 48 - 3 - 1 - 10 768 2015-12-15 14:01:35
713 An Old Story from Grandma (SHK Remake) [FC] 1,598,740 887 - 165 - 13 - 0 - 10 1,065 2015-12-15 13:59:12
1,615 NEXT STAGE!! 914,000 562 - 34 - 0 - 1 - 7 596 2015-12-15 13:55:50
2,501 NEXT STAGE!! 48,430 30 - 2 - 0 - 2 - 0 32 2015-12-15 13:54:25
851 Girl Directions 718,105 450 - 15 - 2 - 1 - 16 467 2015-12-15 13:54:09
13,390 Tribal Revival 1,187,540 742 - 28 - 2 - 1 - 3 772 2015-12-15 13:52:40
1,570 Lethal Injection [FC] 1,640,975 991 - 80 - 3 - 0 - 12 1,074 2015-12-15 13:50:15
10,929 Night Of Flight 1,392,150 860 - 41 - 7 - 1 - 10 908 2015-12-15 13:47:05
25,709 Tribal Revival 613,225 387 - 10 - 1 - 1 - 6 398 2015-12-15 13:44:39
2,226 Cruel Whole (Abelcain Remix) [FC] 1,796,080 1,068 - 103 - 9 - 0 - 7 1,180 2015-12-15 13:43:23
4,321 House Leaves [FC] 1,094,820 648 - 66 - 6 - 0 - 3 720 2015-12-15 13:39:55
8,305 00.01 698,450 386 - 74 - 6 - 1 - 11 466 2015-12-15 13:37:30
8,719 Virtual Emotion 455,755 282 - 15 - 0 - 1 - 8 297 2015-12-15 13:36:27
1,912 Oasis -Long Version- 1,233,780 730 - 74 - 8 - 1 - 10 812 2015-12-15 13:35:25
2,251 Oasis -Long Version- 208,525 129 - 7 - 0 - 1 - 2 136 2015-12-15 13:33:16
2,377 Oasis -Long Version- 4,340 3 - 0 - 0 - 1 - 0 3 2015-12-15 13:32:46
1,897 TizAshura 615,980 354 - 50 - 4 - 1 - 19 408 2015-12-15 13:27:12
512 White book 693,750 417 - 35 - 3 - 1 - 4 455 2015-12-15 13:25:59
1,126 Welcome 2 Omnicore 335,825 184 - 36 - 5 - 1 - 12 225 2015-12-15 13:24:17
430 Help Me Find My Child Or The Gold [FC] 795,050 482 - 36 - 2 - 0 - 3 520 2015-12-15 13:23:30
866 Pull in Pull in Popped Syo Call up Arrest 211,285 126 - 12 - 1 - 1 - 3 139 2015-12-15 13:21:29
1,127 Reaching for the Floor 337,485 198 - 21 - 4 - 1 - 5 223 2015-12-15 13:20:51
1,622 ULTRAnumb 389,155 241 - 11 - 4 - 2 - 1 254 2015-12-15 13:20:02
2,067 Big Dog 360,105 222 - 12 - 1 - 1 - 2 235 2015-12-15 13:18:57
3,915 Card House Dreamer 716,140 443 - 21 - 3 - 1 - 7 467 2015-12-15 13:18:05
5,730 Card House Dreamer 120,920 70 - 10 - 0 - 1 - 1 80 2015-12-15 13:17:00
5,236 Card House Dreamer 210,975 134 - 2 - 1 - 1 - 1 137 2015-12-15 13:16:45
2,516 Orchestral Angels 936,170 566 - 44 - 4 - 1 - 7 613 2015-12-15 13:16:04
21,032 Sakura no Kenshi 311,245 189 - 13 - 2 - 1 - 4 204 2015-12-15 13:14:17
22,728 Sakura no Kenshi 209,630 125 - 11 - 3 - 1 - 0 138 2015-12-15 13:13:36
29,598 Sakura no Kenshi 21,630 8 - 5 - 3 - 1 - 0 16 2015-12-15 13:13:05
13,624 Synful Sub 423,810 259 - 17 - 1 - 1 - 3 277 2015-12-15 13:12:42
21,629 Synful Sub 965 0 - 1 - 0 - 1 - 0 1 2015-12-15 13:11:53
11,275 Snowball Fight 646,245 399 - 19 - 4 - 1 - 17 422 2015-12-15 13:11:30
20,361 Fig Leaf Rag 159,175 99 - 4 - 1 - 1 - 6 104 2015-12-15 13:10:22
31,568 Incognito 214,310 144 - 2 - 2 - 21 - 2 141 2015-12-15 13:09:36
27,800 Incognito 455,965 279 - 18 - 1 - 1 - 9 298 2015-12-15 11:29:58
4,747 That is Fair [FC] 892,085 513 - 72 - 5 - 0 - 7 590 2015-12-15 11:29:11
2,110 Courage [FC] 1,277,420 788 - 44 - 0 - 0 - 4 832 2015-12-15 11:27:34
1,555 Dim Wood 115,015 67 - 9 - 0 - 1 - 0 76 2015-12-15 11:24:56
5,691 Betrayal of Fate 530,295 329 - 13 - 4 - 1 - 7 346 2015-12-15 11:24:24
24,481 Coactive 98,320 62 - 2 - 0 - 1 - 1 64 2015-12-15 11:22:56
24,765 Coactive 94,100 56 - 6 - 0 - 1 - 2 62 2015-12-15 11:22:32
13,811 Troglodytic Epica 1,536,790 941 - 60 - 2 - 1 - 3 1,003 2015-12-15 11:20:29
32,973 Troglodytic Epica 8,970 6 - 0 - 0 - 1 - 1 6 2015-12-15 11:17:09
29,115 Chaotic Sound 271,615 150 - 31 - 0 - 1 - 5 181 2015-12-15 11:16:51
21,649 Troglodytic Epica 390,090 246 - 17 - 1 - 22 - 6 257 2015-12-15 11:15:53
33,485 The Final Fantasy 308,220 188 - 11 - 3 - 1 - 3 202 2015-12-15 10:22:41
2,393 Bricks [Light] 986,455 618 - 22 - 1 - 1 - 12 641 2015-12-15 10:21:40
2,352 bossa nova of december 920,620 565 - 33 - 3 - 1 - 3 601 2015-12-15 10:19:52
2,051 Find a Pet (Candy Mix) 522,350 318 - 21 - 3 - 1 - 9 342 2015-12-15 10:17:55
2,711 Dragon Slayer 172,695 106 - 6 - 1 - 1 - 0 113 2015-12-15 10:16:53
2,161 Dragon Slayer 464,130 280 - 24 - 0 - 1 - 8 304 2015-12-15 10:16:17
651 Move It Groove It [Standard] [FC] 1,114,760 685 - 40 - 2 - 0 - 5 727 2015-12-15 10:14:15
536 Empty Garden [FC] 891,790 554 - 26 - 0 - 0 - 3 580 2015-12-15 10:10:15
1,838 Empty Garden 42,775 27 - 1 - 0 - 1 - 2 28 2015-12-15 10:08:32
4,400 X-Dreamer Final Cut [FC] 928,445 559 - 47 - 2 - 0 - 2 608 2015-12-15 10:07:56
1,620 Tsugaru 180 New Version [FC] 992,640 624 - 20 - 0 - 0 - 3 644 2015-12-15 10:05:56
2,246 Roller Coaster Ride [FC] 935,030 582 - 25 - 1 - 0 - 0 608 2015-12-15 10:03:49
4,570 X-Dreamer Final Cut [FC] 927,750 558 - 46 - 4 - 0 - 1 608 2015-12-15 10:01:40
50,008 X-Dreamer Final Cut 203,125 124 - 8 - 1 - 1 - 1 133 2015-12-15 09:59:46
1,747 The Entertainer [FC] 2,289,700 1,438 - 47 - 1 - 0 - 9 1,486 2015-12-15 09:52:53
1,340 Piasolute [FC] 1,313,810 799 - 55 - 5 - 0 - 2 859 2015-12-15 09:49:09
2,972 Wind Waker Unplugged 1,027,820 611 - 63 - 1 - 1 - 15 675 2015-12-15 09:45:56
8,124 Wind Waker Unplugged 2,790 2 - 0 - 0 - 1 - 0 2 2015-12-15 09:43:54
7,685 Wind Waker Unplugged 27,490 13 - 6 - 0 - 1 - 0 19 2015-12-15 09:43:48
8,097 Wind Waker Unplugged 4,065 2 - 1 - 0 - 1 - 0 3 2015-12-15 09:43:38
933 Toxic [FC] 1,925,510 1,170 - 78 - 12 - 0 - 5 1,260 2015-12-15 09:43:18
3,501 Rainbow Road [Zorsy] 356,900 177 - 62 - 4 - 2 - 5 243 2015-12-15 09:39:45
4,997 Rainbow Road [Zorsy] 64,195 36 - 6 - 1 - 1 - 0 43 2015-12-15 09:39:04
1,252 Tied The Room Together 122,275 75 - 5 - 0 - 1 - 2 80 2015-12-15 09:38:31
1,172 Tied The Room Together 267,555 148 - 27 - 4 - 1 - 9 179 2015-12-15 09:35:38
1,233 Tied The Room Together 154,525 90 - 12 - 1 - 1 - 1 102 2015-12-15 09:34:53
919 Taking Wing 696,085 406 - 53 - 0 - 1 - 24 459 2015-12-15 09:33:38
539 Exodus (On vocal ver.) [FC] 1,098,285 675 - 40 - 1 - 0 - 1 716 2015-12-15 09:32:18
789 Song of Storms Dubstep Rap Remix [FC] 940,955 569 - 43 - 4 - 0 - 2 616 2015-12-15 09:29:51
7,128 Lady's Cake 321,430 196 - 14 - 2 - 1 - 1 210 2015-12-15 09:27:41
11,743 Lady's Cake 70,900 38 - 8 - 2 - 1 - 0 48 2015-12-15 09:26:58
2,000 Do Re Mi Fa Rondo 467,550 292 - 12 - 0 - 1 - 2 304 2015-12-15 09:26:29
2,580 Do Re Mi Fa Rondo 28,845 18 - 1 - 0 - 1 - 1 19 2015-12-15 09:25:35
2,582 Do Re Mi Fa Rondo 28,570 17 - 2 - 0 - 1 - 1 19 2015-12-15 09:25:27
2,579 Do Re Mi Fa Rondo 28,865 18 - 1 - 0 - 1 - 0 19 2015-12-15 09:25:18
2,368 F [FC] 1,054,530 656 - 28 - 2 - 0 - 4 686 2015-12-15 09:24:55
23,537 F 75,090 47 - 2 - 0 - 1 - 0 49 2015-12-15 09:21:53
2,926 Dragon's Final Roar [FC] 961,335 579 - 46 - 5 - 0 - 2 630 2015-12-15 09:21:14
9,728 Lady's Cake 196,255 113 - 16 - 1 - 1 - 2 130 2015-12-15 09:19:03
1,641 Do Re Mi Fa Rondo 1,016,750 620 - 44 - 0 - 1 - 2 664 2015-12-15 09:18:20
2,635 Do Re Mi Fa Rondo 14,915 9 - 1 - 0 - 1 - 0 10 2015-12-15 09:16:25
2,595 Do Re Mi Fa Rondo 27,525 14 - 4 - 1 - 1 - 1 19 2015-12-15 09:16:18
2,645 Do Re Mi Fa Rondo 14,365 7 - 3 - 0 - 1 - 0 10 2015-12-15 09:16:10
425 Dreadnought [Standard] [FC] 1,034,990 645 - 26 - 2 - 0 - 1 673 2015-12-15 08:08:33
363 Strength [FC] 1,208,755 750 - 33 - 4 - 0 - 2 787 2015-12-15 08:06:09
817 Strength 202,640 126 - 6 - 0 - 1 - 0 132 2015-12-15 08:03:30
7,446 Ieva's Polka (Basshunter Remix) 368,240 219 - 22 - 2 - 1 - 3 242 2015-12-15 08:02:35
6,883 Ieva's Polka (Basshunter Remix) 588,695 354 - 27 - 6 - 2 - 7 387 2015-12-15 08:01:43
663 I Remember When [FC] 1,792,570 1,132 - 29 - 1 - 0 - 3 1,162 2015-12-15 08:00:30
1,368 Let's Go 587,215 328 - 59 - 4 - 1 - 16 391 2015-12-15 07:57:03
259 Lettuce Regulation 725,235 449 - 24 - 1 - 1 - 3 472 2015-12-15 07:55:45
339 Lettuce Regulation 462,230 282 - 20 - 0 - 1 - 3 302 2015-12-15 07:53:51
24,929 World of Dreams 442,845 251 - 40 - 3 - 1 - 3 294 2015-12-15 07:52:28
2,485 AM-3P (House Party Dub) [FC] 878,870 535 - 34 - 6 - 0 - 3 575 2015-12-15 07:49:40
2,033 Leeroy Jenkins (Fun Time Mix) [FC] 841,955 521 - 27 - 0 - 0 - 1 548 2015-12-15 07:47:18
829 Politically Correct Holiday Song [FC] 858,075 525 - 34 - 1 - 0 - 4 560 2015-12-15 07:45:29
456 sign of hero -the third dream fragment- [FC] 1,027,720 614 - 58 - 2 - 0 - 2 674 2015-12-15 07:43:37
7,919 Go Go Go Power Rangers 737,385 461 - 19 - 0 - 1 - 4 479 2015-12-15 07:39:51
8,330 Endless Dream 1,247,435 760 - 54 - 1 - 1 - 8 815 2015-12-15 07:38:15
23,135 Endless Dream 1,240 1 - 0 - 0 - 1 - 0 1 2015-12-15 07:36:21
21,522 {Blaze} 424,595 257 - 20 - 1 - 1 - 0 278 2015-12-15 07:36:04
22,011 Moonbeam 332,785 199 - 30 - 1 - 19 - 4 221 2015-12-15 07:34:51
38,111 Moonbeam 3,000 3 - 2 - 0 - 10 - 5 4 2015-12-15 07:34:18
4,032 The Prototype 1,093,770 1,114 - 131 - 21 - 5 - 28 446 2015-12-15 07:34:01
14,147 Infernoplex 19,480 14 - 2 - 0 - 15 - 6 16 2015-12-15 07:31:11
4,682 The Brain of the Moon 1,495,060 1,868 - 231 - 23 - 13 - 55 408 2015-12-15 07:28:47
12,139 B.B. - Euro - 430,280 475 - 67 - 5 - 33 - 22 161 2015-12-15 07:24:18
14,615 The Brain of the Moon 546,515 325 - 36 - 3 - 20 - 5 364 2015-12-15 07:22:33
2,717 dr0p 800,775 750 - 79 - 16 - 9 - 27 369 2015-12-15 07:21:18
3 Endgame 454,250 721 - 416 - 64 - 286 - 178 32 2015-12-14 10:16:18
4 Endgame 11,795 10 - 3 - 0 - 21 - 1 12 2015-12-14 10:10:09
19,110 Vertex BETA 460,640 411 - 81 - 7 - 51 - 13 228 2015-12-14 09:09:56
3,840 MASCARADA 777,875 479 - 58 - 1 - 20 - 19 505 2015-12-14 09:08:34
20,201 GO! 190,325 114 - 17 - 2 - 16 - 10 128 2015-12-14 09:06:15
248 Slam Crunk 571,850 667 - 100 - 6 - 17 - 28 183 2015-12-14 09:05:47
1,020 Through The Martian Hell 528,600 514 - 55 - 9 - 16 - 38 236 2015-12-13 15:35:59
1,656 Electric Daisy Violin 848,635 1,066 - 172 - 17 - 24 - 73 223 2015-12-13 15:34:40
1,287 Princess Lolitits 429,405 394 - 99 - 14 - 11 - 44 189 2015-12-13 15:31:16
869 My favorite shoes 508,790 602 - 110 - 18 - 21 - 52 154 2015-12-13 15:29:56
767 Pork and Beans 987,360 851 - 161 - 21 - 8 - 32 477 2015-12-13 15:28:10
2,347 Pork and Beans 12,485 12 - 1 - 0 - 17 - 6 11 2015-12-13 15:25:49
2,333 Pork and Beans 29,615 20 - 4 - 1 - 14 - 10 22 2015-12-13 15:25:42
1,285 Blackout [Breathe Carolina] 752,275 642 - 127 - 16 - 3 - 35 365 2015-12-13 15:25:16
654 Enjoyable Fruit 695,960 745 - 164 - 34 - 22 - 97 248 2015-12-13 15:23:03
463 I See You Staring 1,058,075 1,240 - 154 - 15 - 12 - 19 337 2015-12-13 15:20:58
595 Monkey Island 523,475 476 - 89 - 12 - 6 - 30 239 2015-12-13 15:16:46
227 Night Messenger 915,115 541 - 58 - 3 - 1 - 12 602 2015-12-13 15:12:16
350 Night Messenger 49,995 30 - 3 - 0 - 1 - 1 33 2015-12-13 15:10:15
344 Galaxy in Toybox [Light] 244,800 155 - 3 - 1 - 1 - 1 159 2015-12-13 15:09:45
27,684 Abtrusity 577,940 359 - 12 - 6 - 0 - 7 377 2015-12-13 15:08:24
27,666 Abtrusity 587,320 352 - 29 - 5 - 1 - 11 386 2015-12-13 15:06:50
33,169 The Final Fantasy 322,700 189 - 22 - 2 - 1 - 5 213 2015-12-13 15:04:37
14,458 Troglodytic Epica 1,493,735 890 - 89 - 2 - 1 - 2 980 2015-12-13 15:03:34
33,201 Troglodytic Epica 965 0 - 1 - 0 - 1 - 0 1 2015-12-13 15:00:23
5,728 X-Dreamer Final Cut 922,260 543 - 61 - 3 - 1 - 1 607 2015-12-13 15:00:04
3,503 Harukanaru Kokyou 884,965 476 - 110 - 7 - 1 - 8 593 2015-12-13 14:57:24
4,555 Lady's Cake 437,165 246 - 40 - 5 - 1 - 5 291 2015-12-13 14:55:51
1,828 asterisk 624,205 373 - 35 - 2 - 2 - 3 410 2015-12-13 14:54:43
2,381 beyond the summer sky ~Maid To Order~ 605,560 365 - 29 - 3 - 1 - 1 397 2015-12-13 14:53:31
1,356 Let's Go 582,225 357 - 23 - 0 - 1 - 7 380 2015-12-13 14:52:03
466 Once Upon A December [FC] 974,830 535 - 106 - 10 - 0 - 6 651 2015-12-13 14:50:33
250 Lettuce Regulation 746,290 462 - 24 - 0 - 1 - 5 486 2015-12-13 14:48:26
2,399 4F73R M3 (FFR Edit) 1,332,545 841 - 23 - 0 - 1 - 1 864 2015-12-13 14:45:46
1,352 Charge!!! [FC] 1,065,660 653 - 42 - 0 - 0 - 2 695 2015-12-13 14:41:42
5,291 Lady's Cake 393,985 244 - 11 - 2 - 1 - 2 257 2015-12-13 14:39:19
11,652 Lady's Cake 75,815 45 - 5 - 0 - 1 - 0 50 2015-12-13 14:38:31
220 My Suit & Tie Life (D.licious Live Edit) [FC] 867,280 534 - 27 - 5 - 0 - 6 566 2015-12-13 14:37:53
4,387 F 1,026,825 610 - 64 - 1 - 1 - 1 674 2015-12-13 13:47:21
1,672 Let's Go 242,640 142 - 18 - 0 - 1 - 5 160 2015-12-13 13:44:45
6,942 Ieva's Polka (Basshunter Remix) 557,445 336 - 29 - 0 - 1 - 1 365 2015-12-13 13:44:01
1,801 Inspector Gadget [Dr. Steel] [FC] 751,010 450 - 42 - 0 - 0 - 2 492 2015-12-13 13:42:32
3,135 AM-3P (House Party Dub) 864,565 517 - 45 - 6 - 1 - 9 568 2015-12-13 13:40:18
2,829 V1 [FC] 935,450 576 - 31 - 3 - 0 - 2 610 2015-12-13 13:38:23
24,119 World of Dreams 454,425 286 - 9 - 0 - 1 - 2 295 2015-12-13 13:36:03
486 Alive (Pegboard Nerds Remix) [Standard] [FC] 1,306,140 805 - 45 - 1 - 0 - 2 851 2015-12-13 12:08:37
503 Time (Soular Order Remix) [FC] 978,680 597 - 41 - 1 - 0 - 0 639 2015-12-13 12:04:56
2,861 Entry of the Gladiators, Op.68 316,120 191 - 16 - 0 - 1 - 1 207 2015-12-13 12:02:09
2,936 Entry of the Gladiators, Op.68 285,315 167 - 21 - 0 - 1 - 0 188 2015-12-13 12:01:36
3,267 Harukanaru Kokyou 890,230 496 - 93 - 3 - 1 - 0 592 2015-12-13 12:00:38
1,063 Once Upon A December 216,390 125 - 18 - 0 - 1 - 0 143 2015-12-13 11:59:02
858 Once Upon A December 514,960 303 - 35 - 1 - 1 - 3 339 2015-12-13 11:58:29
1,171 Song For All Time [FC] 1,846,470 1,165 - 32 - 0 - 0 - 4 1,197 2015-12-13 10:04:42
1,440 Crazy Hair Day [FC] 1,392,555 868 - 37 - 0 - 0 - 1 905 2015-12-13 09:59:00
1,495 Cash Cow [FC] 1,543,390 968 - 33 - 1 - 0 - 7 1,002 2015-12-13 09:55:21
2,967 FFR Evolution [FC] 1,172,300 719 - 43 - 3 - 0 - 7 765 2015-12-13 09:52:38
2,423 beyond the summer sky ~Maid To Order~ 588,535 358 - 25 - 2 - 1 - 2 385 2015-12-13 09:50:17
2,949 asterisk 177,820 110 - 6 - 0 - 1 - 1 116 2015-12-13 09:48:53
2,901 asterisk 192,470 112 - 15 - 1 - 1 - 0 127 2015-12-13 09:48:33
684 Once Upon A December 773,765 466 - 39 - 2 - 1 - 3 507 2015-12-13 09:46:22
833 Once Upon A December 561,380 328 - 41 - 1 - 1 - 2 370 2015-12-13 09:44:44
3,163 Jumper 466,040 291 - 12 - 0 - 1 - 0 303 2015-12-13 09:43:24
949 Humoresque No. 7 [FC] 1,092,725 665 - 47 - 2 - 0 - 3 714 2015-12-13 09:42:20
1,855 False Strawberry [FC] 1,091,950 670 - 42 - 0 - 0 - 5 712 2015-12-13 09:39:32
13,804 False Strawberry 2,515 1 - 1 - 0 - 1 - 0 2 2015-12-13 09:37:14
1,790 Wish (Kyrn Remix) [FC] 1,209,855 754 - 29 - 4 - 0 - 2 787 2015-12-13 09:36:51
1,033 So Long To The Circus [FC] 1,501,080 952 - 20 - 0 - 0 - 1 972 2015-12-13 09:33:20
1,824 Fly With Me [FC] 1,193,335 751 - 23 - 0 - 0 - 2 774 2015-12-13 09:29:51
7,498 Psychosis 677,635 401 - 41 - 4 - 1 - 5 446 2015-12-13 09:27:26
8,473 Psychosis 321,985 188 - 21 - 4 - 1 - 5 213 2015-12-13 09:25:56
11,927 Psychosis 1,220 1 - 0 - 0 - 1 - 1 1 2015-12-13 09:25:01
2,041 Stalled Out and Sushi Bars [FC] 914,960 574 - 19 - 1 - 0 - 1 594 2015-12-13 09:24:48
304 Winter Vale [FC] 698,825 431 - 20 - 5 - 0 - 0 456 2015-12-13 09:22:09
639 Winter Vale 450,185 274 - 17 - 4 - 1 - 5 295 2015-12-13 09:18:57
822 subconsciousness [FC] 927,610 574 - 29 - 1 - 0 - 6 604 2015-12-13 09:17:27
17,026 So Long To The Circus 57,140 34 - 4 - 0 - 2 - 2 38 2015-12-12 16:27:16
1,991 Underground [FC] 1,313,855 809 - 47 - 0 - 0 - 1 856 2015-12-12 16:25:21
8,693 Bicycle Break 1,873,585 1,124 - 96 - 9 - 1 - 10 1,229 2015-12-12 16:22:16
2,920 Hungarian Dance No. 5 [FC] 866,600 541 - 22 - 0 - 0 - 0 563 2015-12-12 16:18:18
2,149 The Last Firstborn [FC] 878,985 532 - 41 - 2 - 0 - 0 575 2015-12-12 16:15:58
41,618 The Last Firstborn 85,920 54 - 2 - 0 - 1 - 1 56 2015-12-12 16:13:52
729 DESIRE DRIVE (LLS HARDCORE REMIX) [Standard] [FC] 866,460 536 - 28 - 0 - 0 - 2 564 2015-12-12 16:13:19
397 Ame no odoriko (asha remix) [FC] 986,645 613 - 27 - 2 - 0 - 2 642 2015-12-12 16:11:13
2,433 DESIRE DRIVE (LLS HARDCORE REMIX) [Standard] 477,600 302 - 10 - 2 - 10 - 13 312 2015-12-12 16:08:59
2,885 {Losing Touch} [FC] 1,120,735 701 - 26 - 1 - 0 - 1 728 2015-12-12 16:07:17
2,392 4F73R M3 (FFR Edit) 1,284,105 844 - 25 - 0 - 19 - 4 819 2015-12-12 16:04:14
2,681 Song For The Nihonjins [FC] 2,188,015 1,347 - 77 - 2 - 0 - 6 1,426 2015-12-12 16:01:03
2,481 Elements [FC] 811,965 512 - 12 - 3 - 0 - 5 527 2015-12-12 15:56:25
2,179 Red Dress [Heavy] [FC] 1,370,160 853 - 36 - 2 - 0 - 0 891 2015-12-12 15:54:45
1,128 Break Your Neck [FC] 1,086,225 672 - 35 - 0 - 0 - 0 707 2015-12-12 15:50:38
623 In The Clouds [FC] 320,485 198 - 9 - 2 - 0 - 0 209 2015-12-12 15:47:52
417 Everfree [FC] 732,390 448 - 29 - 1 - 0 - 2 478 2015-12-12 15:46:41
291 KISS CANDY FLAVOR [Standard] [FC] 1,093,230 689 - 19 - 1 - 0 - 0 709 2015-12-12 15:44:51
5,335 Gaussian Blur 3 377,080 295 - 82 - 4 - 28 - 13 201 2015-12-11 16:53:42
355 KISS CANDY FLAVOR [Standard] [FC] 1,087,625 670 - 37 - 2 - 0 - 8 709 2015-12-11 16:50:59
391 We Are Never Ever Getting Back Together [FC] 922,295 563 - 39 - 0 - 0 - 4 602 2015-12-11 16:48:19
372 Diamond Dust Zone - Act 1 [FC] 600,685 377 - 12 - 1 - 0 - 1 390 2015-12-11 16:45:48
671 Atop The World [FC] 383,055 230 - 20 - 1 - 0 - 0 251 2015-12-11 16:44:10
2,051 Atop The World 119,215 73 - 5 - 0 - 1 - 0 78 2015-12-11 16:42:39
566 Rill Rill (Dr. Ozi Remix) [FC] 781,930 490 - 16 - 2 - 0 - 4 508 2015-12-11 16:41:36
594 Swaying Sunflowers [FC] 797,675 499 - 19 - 0 - 0 - 0 518 2015-12-11 16:39:07
876 Blame It on Bad Luck [FC] 1,671,760 1,015 - 74 - 4 - 0 - 3 1,093 2015-12-11 16:37:19
1,398 The Lion's Dance [FC] 747,910 452 - 33 - 5 - 0 - 2 490 2015-12-11 16:33:40
1,795 N's Farewell 368,425 219 - 23 - 0 - 1 - 2 242 2015-12-11 16:31:10
2,029 N's Farewell 5,615 3 - 1 - 0 - 1 - 0 4 2015-12-11 16:30:04
683 W [FC] 1,305,555 807 - 43 - 0 - 0 - 6 850 2015-12-11 16:29:49
3,613 Nocturne 512,035 317 - 14 - 3 - 1 - 1 334 2015-12-11 16:25:52
1,726 Drum Song [FC] 1,025,330 650 - 14 - 0 - 0 - 1 664 2015-12-11 16:23:39
2,440 First Try [FC] 691,770 422 - 28 - 2 - 0 - 7 452 2015-12-11 16:21:14
56,923 First Try 123,540 72 - 8 - 2 - 1 - 3 82 2015-12-11 16:19:52
1,954 From Mount Chorus [FC] 1,622,170 1,027 - 23 - 1 - 0 - 3 1,051 2015-12-11 16:19:19
1,960 January's Song [FC] 971,955 610 - 20 - 1 - 0 - 5 631 2015-12-11 16:15:57
2,378 Just Died [FC] 1,182,310 742 - 22 - 4 - 0 - 3 768 2015-12-11 16:13:25
1,774 My Beautiful Rescue [FC] 1,275,005 747 - 87 - 6 - 0 - 5 840 2015-12-11 16:10:09
8,205 My Beautiful Rescue 7,590 6 - 3 - 1 - 11 - 9 7 2015-12-11 16:07:26
420 Curtain 310,675 200 - 7 - 0 - 13 - 11 203 2015-12-11 16:06:51
1,690 Sirius 392,665 408 - 145 - 28 - 87 - 59 155 2015-12-10 15:43:51
12,263 Moonlight River 282,690 176 - 8 - 0 - 1 - 0 184 2015-12-10 15:39:55
409 Curtain 453,875 284 - 11 - 0 - 1 - 2 295 2015-12-10 15:39:07
1,711 Countdown 819,485 497 - 38 - 1 - 1 - 3 536 2015-12-10 15:37:46
840 story of dreamers [FC] 757,275 468 - 25 - 0 - 0 - 0 493 2015-12-10 15:35:21
601 memories [KURi-ZiLL] [FC] 791,950 506 - 6 - 0 - 0 - 0 512 2015-12-10 15:33:05
11,048 Moonlight River 444,675 283 - 5 - 0 - 1 - 2 288 2015-12-10 15:30:54
2,364 Funktacular [FC] 508,585 311 - 20 - 1 - 0 - 1 332 2015-12-10 15:29:53
20,004 Funktacular 67,305 43 - 1 - 0 - 2 - 0 44 2015-12-10 15:28:17
1,444 Seagull [FC] 864,660 548 - 12 - 0 - 0 - 2 560 2015-12-10 15:26:46
2,541 Transparent White 579,115 347 - 31 - 2 - 1 - 3 380 2015-12-10 15:23:54
614 Reality Hits You Hard Bro [FC] 563,000 355 - 10 - 0 - 0 - 0 365 2015-12-10 15:22:13
952 Warren [FC] 623,060 375 - 27 - 7 - 0 - 0 409 2015-12-10 15:20:30
381 grass-green holiday [FC] 988,320 613 - 30 - 0 - 0 - 4 643 2015-12-10 15:18:44
380 Drizzling Rain [FC] 595,100 379 - 6 - 0 - 0 - 0 385 2015-12-10 15:16:40
246 Torvus Clockwork [FC] 782,925 501 - 5 - 0 - 0 - 0 506 2015-12-10 15:14:43
4,005 Transparent White 473,155 290 - 18 - 1 - 1 - 2 309 2015-12-10 15:12:37
4,689 Leaves In The Wind 217,865 135 - 7 - 0 - 1 - 0 142 2015-12-10 14:18:32
299 Noetic [FC] 648,380 402 - 19 - 1 - 0 - 0 422 2015-12-10 14:17:25
189 Chaos [Godspeed] [FC] 1,067,985 680 - 11 - 0 - 0 - 2 691 2015-12-10 14:15:38
540 Reset [FC] 951,500 604 - 12 - 0 - 0 - 0 616 2015-12-10 14:12:58
623 Submission Rules [FC] 681,015 411 - 32 - 3 - 0 - 0 446 2015-12-10 14:09:47
954 Maintenance Bot [FC] 900,755 564 - 20 - 1 - 0 - 0 585 2015-12-10 14:06:54
4,638 Leaves In The Wind 262,100 163 - 6 - 2 - 1 - 0 171 2015-12-10 14:04:24
352 warm sea [FC] 673,400 418 - 20 - 0 - 0 - 0 438 2015-12-10 14:02:59
703 warm sea 14,225 11 - 3 - 0 - 11 - 12 11 2015-12-10 14:01:15
1,523 BLUE ARMY 1,950,445 2,707 - 480 - 49 - 94 - 148 359 2015-12-10 13:23:38
3,766 Lawn Wake IV (Black) 621,475 838 - 161 - 16 - 44 - 47 130 2015-12-10 13:16:53
16,151 {Rose} 602,665 570 - 86 - 7 - 27 - 25 274 2015-12-10 13:14:28
10,977 The Brain of the Moon 1,223,895 1,245 - 113 - 10 - 22 - 33 515 2015-12-10 13:12:59
6,544 Air 1,993,100 1,692 - 213 - 23 - 12 - 31 1,007 2015-12-10 13:09:49
8,965 Vertex BETA 972,745 1,238 - 354 - 53 - 110 - 116 228 2015-12-10 13:05:22
3,315 Alone Again At 4AM 398,725 255 - 3 - 0 - 1 - 2 258 2015-12-10 13:01:05
671 Eight [FC] 932,725 596 - 7 - 0 - 0 - 0 603 2015-12-10 12:59:41
4,318 Leaves In The Wind 720,545 443 - 26 - 1 - 1 - 0 470 2015-12-10 12:56:36
593 Three Ring Nightfall [FC] 1,012,225 644 - 11 - 0 - 0 - 0 655 2015-12-10 12:53:59
246 Sneakman [FC] 720,375 459 - 7 - 0 - 0 - 0 466 2015-12-10 12:50:33
792 Alice's Garden [FC] 600,720 347 - 46 - 4 - 0 - 0 397 2015-12-10 12:47:35
724 Where Are You Christmas [FC] 974,735 602 - 31 - 2 - 0 - 0 635 2015-12-10 12:45:33
592 Nedeleg Laouen! [FC] 631,255 400 - 8 - 1 - 0 - 0 409 2015-12-10 12:41:13
566 CmR [FC] 680,800 431 - 10 - 0 - 0 - 0 441 2015-12-10 12:38:56
105 Xyris [FC] 565,000 353 - 14 - 0 - 0 - 0 367 2015-12-10 12:35:42
288 Star [FC] 658,650 420 - 6 - 0 - 0 - 0 426 2015-12-10 12:33:33
378 Still Blastin [Light] [FC] 614,030 393 - 3 - 1 - 0 - 0 397 2015-12-10 12:31:23
390 bluebird [FC] 723,200 460 - 8 - 0 - 0 - 0 468 2015-12-10 12:29:14
253 Midnight [FC] 1,088,250 684 - 22 - 0 - 0 - 0 706 2015-12-10 12:26:48
3,758 Leaves In The Wind 891,165 548 - 33 - 0 - 1 - 0 581 2015-12-10 12:22:17
1,032 Serenade of Storms [FC] 840,635 517 - 30 - 1 - 0 - 1 548 2015-12-10 12:18:54
6,246 Serenade of Storms 376,415 234 - 11 - 0 - 1 - 0 245 2015-12-10 12:15:41
787 The Battle With the Betrayed [FC] 1,496,155 948 - 21 - 0 - 0 - 1 969 2015-12-10 12:13:39
908 Yellow Lasers [FC] 831,125 514 - 27 - 0 - 0 - 0 541 2015-12-10 12:10:32
584 No Running Water [FC] 785,375 496 - 13 - 0 - 0 - 0 509 2015-12-10 12:07:41
1,171 Forgotten Planet [FC] 815,610 518 - 10 - 0 - 0 - 2 528 2015-12-10 12:05:21
937 Slow Motion (Wipeout Pure Xtra) [FC] 747,635 467 - 17 - 2 - 0 - 0 486 2015-12-10 12:03:11
2,561 Koala In The Spider's Web [FC] 767,025 471 - 29 - 0 - 0 - 0 500 2015-12-10 12:01:07
2,688 Until You Leave 1,322,890 813 - 47 - 3 - 1 - 2 863 2015-12-10 11:58:49
1,238 Rocking Ass [FC] 643,950 399 - 20 - 0 - 0 - 0 419 2015-12-10 11:55:47
1,065 Ice Candy Pop [FC] 690,605 435 - 12 - 1 - 0 - 0 448 2015-12-10 11:53:31
2,212 Learn 2 Play [FC] 799,225 500 - 19 - 0 - 0 - 0 519 2015-12-10 11:51:52
6,134 Silence v2 437,020 269 - 16 - 0 - 1 - 1 285 2015-12-10 11:49:09
2,256 Stay With Me (Unlikely) v2 [FC] 853,375 530 - 25 - 0 - 0 - 0 555 2015-12-10 11:47:15
2,331 Contradistinction [FC] 472,825 296 - 11 - 0 - 0 - 0 307 2015-12-10 11:43:35
1,461 Until The End [FC] 688,075 425 - 23 - 0 - 0 - 0 448 2015-12-10 11:40:16
77,779 Until The End 945 0 - 1 - 0 - 1 - 1 1 2015-12-10 11:37:44
729 Kirlian Changes [FC] 346,375 221 - 3 - 0 - 0 - 0 224 2015-12-10 11:16:13
920 Steel for Pappa [FC] 534,650 340 - 6 - 0 - 0 - 0 346 2015-12-10 11:14:44
489 Rainbow Road [nanobii] [FC] 919,355 576 - 20 - 1 - 0 - 0 597 2015-12-10 11:12:34
369 Fish On a Parachute [FC] 553,975 350 - 9 - 0 - 0 - 0 359 2015-12-10 11:09:32
335 Breathe [TwoThirds] [FC] 483,555 308 - 4 - 1 - 0 - 0 313 2015-12-10 11:07:37
319 Eternity [FC] 651,175 416 - 5 - 0 - 0 - 0 421 2015-12-10 11:05:26
579 No Money Down, Low Monthly Payments [FC] 530,075 328 - 17 - 0 - 0 - 0 345 2015-12-10 11:02:58
410 Shade [FC] 638,355 398 - 16 - 1 - 0 - 0 415 2015-12-10 11:01:17
1,028 Shade 396,805 249 - 9 - 0 - 2 - 0 258 2015-12-10 10:59:13
790 Pink Fluffy Unicorns Dancing on Rainbows [FC] 552,150 348 - 10 - 0 - 0 - 0 358 2015-12-10 10:57:40
539 In An Instant [FC] 627,925 401 - 5 - 0 - 0 - 0 406 2015-12-10 10:55:52
922 XP Startup Theme [FC] 411,650 259 - 8 - 0 - 0 - 0 267 2015-12-10 10:53:45
5,848 XP Startup Theme 2,395 1 - 1 - 0 - 1 - 6 2 2015-12-10 10:52:05
5,402 XP Startup Theme 157,450 99 - 8 - 0 - 20 - 0 107 2015-12-10 10:51:30
814 tightrope city [FC] 707,385 449 - 9 - 0 - 0 - 2 458 2015-12-10 10:50:20
577 Passage D [Light] [FC] 398,030 252 - 5 - 1 - 0 - 0 258 2015-12-10 10:47:23
1,286 Sakura Blue Sky [FC] 925,845 582 - 17 - 2 - 0 - 2 601 2015-12-10 10:45:02
1,141 Little Star [FC] 546,675 342 - 13 - 0 - 0 - 0 355 2015-12-10 10:42:54
1,477 Between The Sheets [FC] 1,262,500 803 - 14 - 0 - 0 - 0 817 2015-12-10 10:41:12
53,058 Between The Sheets 73,530 50 - 2 - 0 - 14 - 9 50 2015-12-10 10:37:34
1,410 Strawberry [FC] 467,130 290 - 13 - 1 - 0 - 0 304 2015-12-10 10:36:40
1,077 Dance To Moroder [FC] 864,150 546 - 14 - 0 - 0 - 0 560 2015-12-10 10:34:56
1,894 CIA Rave v2 [FC] 842,275 536 - 9 - 0 - 0 - 0 545 2015-12-10 10:32:07
5,661 Terror From Beyond [FC] 780,545 457 - 55 - 2 - 0 - 2 514 2015-12-09 15:24:28
1,849 Charge!!! [FC] 1,056,230 623 - 67 - 5 - 0 - 6 695 2015-12-08 19:09:33
11,667 Crazy Hair Day 646,185 400 - 20 - 1 - 1 - 3 421 2015-12-08 19:07:08
12,546 Flying High 234,790 156 - 14 - 0 - 22 - 2 152 2015-12-08 15:58:01
14,089 Playdoh 495,990 291 - 46 - 2 - 8 - 17 326 2015-12-08 14:21:41
4,314 X-Dreamer Final Cut 927,630 561 - 45 - 1 - 1 - 2 607 2015-12-08 14:19:49
49,910 X-Dreamer Final Cut 205,675 124 - 10 - 1 - 1 - 1 135 2015-12-08 14:17:42
1,443 Waterfall 325,240 185 - 26 - 6 - 1 - 34 217 2015-12-08 14:06:54
22,918 The Games We Played [Part 2] 862,475 496 - 68 - 7 - 1 - 5 571 2015-12-08 14:06:03
1,328 A Beautiful Storm [FC] 1,115,405 677 - 48 - 5 - 0 - 21 730 2015-12-08 14:03:48
5,850 A Beautiful Storm 51,545 31 - 3 - 0 - 1 - 1 34 2015-12-08 14:01:31
20,454 Fig Leaf Rag 154,100 98 - 2 - 0 - 1 - 2 100 2015-12-08 14:01:04
1,204 Snow [Torley Wong] [FC] 1,000,635 586 - 70 - 3 - 0 - 4 659 2015-12-08 14:00:30
2,782 Rainbow Road [Zorsy] 641,800 353 - 68 - 8 - 1 - 9 429 2015-12-08 13:58:05
11,423 The Entertainer 1,109,115 709 - 9 - 0 - 1 - 0 717 2015-12-08 13:56:43
903 Solar Force [FC] 1,144,630 724 - 17 - 1 - 0 - 15 742 2015-12-08 13:53:48
7,929 00.01 710,855 418 - 44 - 7 - 1 - 11 469 2015-12-08 13:51:42
3,559 Card House Dreamer 1,002,510 628 - 19 - 5 - 1 - 4 652 2015-12-08 13:50:34
7,008 Bricks [Light] 724,395 465 - 4 - 1 - 1 - 10 468 2015-12-08 13:48:53
1,196 Let's Go 687,355 535 - 27 - 4 - 26 - 24 394 2015-12-08 13:47:23
386 Once Upon A December 854,920 582 - 65 - 1 - 3 - 9 518 2015-12-08 13:45:38
918 asterisk 717,140 592 - 103 - 7 - 5 - 31 365 2015-12-08 13:43:30
11,329 Techno Green Greens 86,400 42 - 13 - 5 - 1 - 12 60 2015-12-08 13:36:05
6,275 Vanishing Gungaroon 321,285 189 - 21 - 2 - 1 - 12 212 2015-12-08 13:35:48
7,353 Vanishing Gungaroon 63,415 37 - 5 - 0 - 1 - 0 42 2015-12-08 13:35:09
1,792 Keep It Short 550,830 329 - 25 - 9 - 1 - 9 363 2015-12-08 13:34:42
2,473 Keep It Short 114,525 70 - 5 - 0 - 1 - 2 75 2015-12-08 13:33:24
4,509 Pulling Through 703,855 420 - 38 - 5 - 1 - 28 463 2015-12-08 13:32:47
4,016 Laser Shooter 331,515 197 - 20 - 1 - 1 - 4 218 2015-12-08 13:31:18
6,408 Remember 15 Years Ago... 1,053,110 660 - 24 - 0 - 1 - 9 684 2015-12-08 13:30:26
346 Arsonist [Standard] [FC] 990,500 584 - 63 - 5 - 0 - 15 652 2015-12-08 13:27:43
675 Arsonist [Standard] 141,305 84 - 9 - 0 - 1 - 3 93 2015-12-08 13:25:58
4,571 Smash Podcast 372,765 230 - 13 - 0 - 1 - 0 243 2015-12-08 13:25:26
6,341 Lover Reef 504,800 292 - 38 - 4 - 1 - 8 334 2015-12-08 13:24:38
6,565 Lover Reef 463,300 272 - 29 - 5 - 1 - 12 306 2015-12-08 13:23:32
2,644 Asteroid Run 1,322,305 805 - 58 - 1 - 1 - 7 864 2015-12-08 13:22:20
2,044 Pokemon battle imaging - No.3 479,205 286 - 26 - 3 - 1 - 5 315 2015-12-08 13:20:11
2,392 Pokemon battle imaging - No.3 373,865 234 - 9 - 0 - 1 - 0 243 2015-12-08 13:19:15
417 Clocktown [Theophany] [FC] 1,397,230 868 - 35 - 7 - 0 - 9 910 2015-12-08 13:14:39
1,931 Clocktown [Theophany] 168,520 104 - 6 - 0 - 1 - 1 110 2015-12-08 13:08:23
1,349 NEXT STAGE!! 1,063,650 639 - 57 - 1 - 1 - 11 697 2015-12-08 13:07:24
4,010 Wind Waker Unplugged 869,835 531 - 37 - 0 - 1 - 4 568 2015-12-08 13:05:37
10,022 Harukanaru Kokyou 364,985 212 - 28 - 1 - 1 - 3 241 2015-12-08 13:03:40
572 Be-Music Polyphony 171,095 92 - 21 - 2 - 1 - 4 115 2015-12-08 13:02:53
2,572 Ready to go 104,555 57 - 13 - 0 - 1 - 3 70 2015-12-08 13:02:28
2,365 Comfortably Lost 236,640 136 - 18 - 4 - 1 - 1 157 2015-12-08 13:02:08
1,726 Enjoyable Fruit 54,900 34 - 2 - 0 - 1 - 2 36 2015-12-08 13:01:38
4,410 C7 Funk 253,795 147 - 19 - 2 - 1 - 4 168 2015-12-08 13:01:20
2,061 Find a Pet (Candy Mix) 502,710 312 - 12 - 4 - 1 - 5 328 2015-12-08 13:00:45
33,006 The Final Fantasy 329,095 189 - 27 - 2 - 1 - 4 218 2015-12-08 12:59:40
1,225 Taking Wing 449,325 285 - 7 - 0 - 1 - 2 291 2015-12-08 12:58:39
11,785 Lady's Cake 62,955 37 - 3 - 2 - 1 - 1 42 2015-12-08 12:57:33
11,623 Lady's Cake 76,345 47 - 3 - 0 - 1 - 1 50 2015-12-08 12:57:15
2,273 beyond the summer sky ~Maid To Order~ 645,455 381 - 41 - 4 - 1 - 14 425 2015-12-08 12:56:48
4,372 beyond the summer sky ~Maid To Order~ 48,970 27 - 5 - 1 - 1 - 0 33 2015-12-08 12:54:28
3,349 Mercury Lamp [FC] 1,616,115 1,016 - 30 - 3 - 0 - 5 1,049 2015-12-08 09:26:15
41,494 Mercury Lamp 15,135 10 - 3 - 0 - 13 - 8 13 2015-12-08 09:23:48
40,735 Mercury Lamp 22,900 14 - 4 - 0 - 12 - 9 18 2015-12-08 09:23:37
28,007 Mercury Lamp 292,515 192 - 17 - 2 - 15 - 11 187 2015-12-08 09:23:24
12,664 The Epidemic of Unexpected Relapses 337,250 191 - 27 - 7 - 1 - 15 225 2015-12-08 09:21:16
14,972 Uber Rave v2 170,010 105 - 6 - 0 - 1 - 4 111 2015-12-08 09:20:13
2,121 Revolutionary Etude v2 182,350 107 - 10 - 4 - 1 - 8 121 2015-12-08 09:19:46
29,291 Classical Insanity 148,710 79 - 21 - 1 - 1 - 13 100 2015-12-08 09:19:06
29,467 Classical Insanity 143,235 79 - 15 - 2 - 1 - 7 96 2015-12-08 09:18:54
5,074 Piasolute 112,895 64 - 11 - 0 - 1 - 1 75 2015-12-08 09:18:23
55 Emotional Adventure [FC] 930,460 589 - 13 - 1 - 0 - 6 603 2015-12-08 09:17:40
165 Emotional Adventure 15,425 10 - 1 - 0 - 1 - 2 10 2015-12-08 09:15:19
337 Tomorrow Untrodden [FC] 717,000 456 - 8 - 0 - 0 - 0 464 2015-12-08 09:14:50
4,491 Leaves In The Wind 486,465 305 - 11 - 0 - 1 - 0 316 2015-12-08 09:12:15
4,864 Leaves In The Wind 37,775 24 - 1 - 0 - 2 - 4 25 2015-12-08 09:10:30
18,944 Carol Megamix 171,910 107 - 5 - 1 - 1 - 3 112 2015-12-08 09:09:58
18,447 Carol Megamix 263,125 166 - 4 - 1 - 1 - 1 171 2015-12-08 09:09:40
18,636 Carol Megamix 233,285 145 - 7 - 0 - 1 - 4 152 2015-12-08 09:09:17
1,021 Ame no odoriko (asha remix) 277,590 176 - 4 - 0 - 1 - 0 180 2015-12-08 09:08:22
1,198 Crazy Hair Day 1,394,030 880 - 23 - 1 - 1 - 2 904 2015-12-08 09:07:27
8,207 J219 (Ura-Rokkou Mix) 993,245 619 - 26 - 1 - 1 - 5 646 2015-12-08 09:03:22
7,288 Frozen Rain 1,596,095 967 - 75 - 2 - 1 - 9 1,044 2015-12-08 09:01:48
19,162 Frozen Rain 2,205 1 - 1 - 0 - 2 - 0 2 2015-12-08 08:58:40
15,872 Frozen Rain 185,565 116 - 4 - 1 - 1 - 4 121 2015-12-08 08:58:30
6,382 dr0p 697,425 435 - 16 - 3 - 1 - 4 454 2015-12-08 08:57:47
5,358 MegaScorcher 912,245 547 - 49 - 4 - 2 - 34 599 2015-12-08 08:55:01
8,462 00.01 679,490 389 - 53 - 9 - 1 - 11 451 2015-12-08 08:53:20
10,731 00.01 413,100 245 - 24 - 4 - 1 - 8 272 2015-12-08 08:52:25
6,733 Victims and Martyrs 1,601,695 1,015 - 22 - 1 - 2 - 2 1,038 2015-12-08 08:51:30
44,839 Victims and Martyrs 19,545 12 - 1 - 0 - 1 - 1 13 2015-12-08 08:48:52
50,477 Victims and Martyrs 2,515 1 - 1 - 0 - 1 - 0 2 2015-12-08 08:48:46
37,569 Victims and Martyrs 207,115 133 - 1 - 0 - 1 - 0 134 2015-12-08 08:48:42
38,557 Cash Cow 111,545 72 - 1 - 0 - 1 - 1 72 2015-12-08 08:47:52
2,336 Princess Lolitits 286,085 167 - 21 - 2 - 1 - 17 189 2015-12-08 08:47:22
2,729 Princess Lolitits 136,490 80 - 10 - 2 - 1 - 3 90 2015-12-08 08:46:30
2,873 Princess Lolitits 58,455 34 - 5 - 0 - 2 - 0 39 2015-12-08 08:43:48
5,065 Cash Cow 1,393,755 871 - 32 - 5 - 1 - 3 906 2015-12-08 08:40:56
1,635 Lemonade [FC] 1,457,005 913 - 32 - 1 - 0 - 0 946 2015-12-08 08:38:20
6,789 Harukanaru Kokyou 583,130 360 - 20 - 0 - 1 - 3 380 2015-12-08 08:34:23
639 Chase You Down [FC] 1,962,175 1,247 - 23 - 0 - 0 - 0 1,270 2015-12-08 08:25:14
620 The Wanderer [FC] 1,627,400 1,045 - 6 - 0 - 0 - 0 1,051 2015-12-08 08:20:48
10,540 Okusenman! -Hardcore Mix- 360,205 227 - 6 - 1 - 1 - 2 234 2015-12-08 08:16:55
3,856 NeoMAX [FC] 1,071,930 648 - 49 - 5 - 0 - 11 702 2015-12-08 08:16:06
61 Emotional Adventure 927,840 584 - 18 - 0 - 1 - 0 602 2015-12-08 08:11:51
165 Emotional Adventure 17,740 10 - 2 - 0 - 1 - 0 12 2015-12-08 08:09:30
2,808 Endless Dream [FC] 1,431,850 896 - 33 - 1 - 0 - 4 930 2015-12-08 08:09:06
13,370 B.B. - Euro - 484,515 298 - 15 - 4 - 1 - 21 317 2015-12-08 08:06:48
18,682 B.B. - Euro - 103,540 67 - 0 - 0 - 1 - 0 67 2015-12-08 08:06:08
25,923 Kirby's Dream Land 461,515 285 - 15 - 2 - 1 - 8 301 2015-12-08 08:05:46
10,626 Infernoplex 1,042,190 666 - 8 - 0 - 1 - 0 674 2015-12-08 08:04:44
9,393 Flying High 565,200 355 - 12 - 0 - 1 - 2 367 2015-12-08 08:02:48
15,369 Flying High 36,045 21 - 3 - 0 - 1 - 1 24 2015-12-08 08:02:00
8,286 Crystal Wind 309,855 183 - 20 - 1 - 1 - 2 204 2015-12-08 08:01:34
9,886 Horizon Remix 737,215 468 - 7 - 4 - 1 - 1 478 2015-12-08 08:00:33
9,932 Pupil of Frenzy 1,022,655 643 - 19 - 2 - 1 - 1 664 2015-12-08 07:59:14
13,318 B.B. - Euro - 496,330 303 - 19 - 3 - 1 - 20 325 2015-12-08 07:57:03
14,755 B.B. - Euro - 310,785 195 - 7 - 0 - 1 - 4 202 2015-12-08 07:56:10
16,469 Air 1,432,650 874 - 59 - 5 - 1 - 12 936 2015-12-08 07:55:23
21,680 Air 49,445 27 - 7 - 0 - 1 - 1 33 2015-12-08 07:53:07
22,282 Air 26,040 17 - 0 - 0 - 1 - 0 17 2015-12-08 07:52:57
21,569 Air 81,680 48 - 6 - 0 - 1 - 3 54 2015-12-08 07:52:48
21,627 Air 57,040 36 - 2 - 0 - 1 - 0 37 2015-12-08 07:52:37
8,710 The Brain of the Moon 2,548,160 1,583 - 68 - 8 - 1 - 16 1,659 2015-12-08 07:52:16
14,258 The Brain of the Moon 660,355 388 - 45 - 2 - 1 - 11 435 2015-12-08 07:48:52
13,731 The Epidemic of Unexpected Relapses 94,175 52 - 11 - 0 - 1 - 7 63 2015-12-08 07:47:41
13,767 The Epidemic of Unexpected Relapses 94,365 49 - 14 - 1 - 1 - 9 64 2015-12-08 07:47:33
13,836 The Epidemic of Unexpected Relapses 92,045 45 - 17 - 2 - 1 - 9 63 2015-12-08 07:47:25
14,761 The Epidemic of Unexpected Relapses 38,890 22 - 4 - 0 - 1 - 0 26 2015-12-08 07:47:16
14,772 The Epidemic of Unexpected Relapses 36,870 23 - 2 - 0 - 1 - 1 24 2015-12-08 07:47:11
14,677 The Epidemic of Unexpected Relapses 38,715 25 - 1 - 0 - 1 - 0 25 2015-12-08 07:47:06
16,364 The Epidemic of Unexpected Relapses 15,465 10 - 1 - 0 - 1 - 0 10 2015-12-08 07:47:00
14,904 The Epidemic of Unexpected Relapses 34,790 21 - 2 - 0 - 1 - 0 23 2015-12-08 07:46:57
14,099 The Epidemic of Unexpected Relapses 79,465 38 - 14 - 3 - 1 - 7 55 2015-12-08 07:46:51
15,312 The Epidemic of Unexpected Relapses 29,570 16 - 4 - 0 - 1 - 1 20 2015-12-08 07:46:43
14,809 The Epidemic of Unexpected Relapses 36,595 23 - 1 - 0 - 1 - 1 24 2015-12-08 07:46:38
13,917 The Epidemic of Unexpected Relapses 83,385 45 - 11 - 0 - 1 - 4 56 2015-12-08 07:46:33
12,718 The Epidemic of Unexpected Relapses 333,190 179 - 40 - 6 - 1 - 14 224 2015-12-08 07:46:25
14,792 The Epidemic of Unexpected Relapses 37,670 23 - 1 - 1 - 1 - 0 25 2015-12-08 07:45:48
13,003 The Epidemic of Unexpected Relapses 243,785 134 - 27 - 2 - 1 - 7 163 2015-12-08 07:45:31
13,661 The Epidemic of Unexpected Relapses 85,940 53 - 22 - 2 - 13 - 17 55 2015-12-08 07:44:44
11,006 The Epidemic of Unexpected Relapses 424,755 318 - 47 - 6 - 26 - 17 245 2015-12-08 07:41:54
14,461 The Epidemic of Unexpected Relapses 54,870 33 - 7 - 1 - 20 - 3 41 2015-12-08 07:40:51
13,878 The Epidemic of Unexpected Relapses 55,055 50 - 12 - 1 - 18 - 11 30 2015-12-08 07:40:43
386 Video Out B 440,305 602 - 194 - 23 - 55 - 118 74 2015-12-08 07:39:18
3,778 Video Out A 621,165 649 - 81 - 14 - 7 - 33 244 2015-12-08 07:37:03
9,497 Video Out A 397,485 403 - 46 - 9 - 11 - 45 167 2015-12-08 07:35:02
5,379 Gradeus 931,175 1,177 - 268 - 13 - 47 - 101 226 2015-12-08 07:32:54
9,084 DT Rabbit Blood Festival 1,393,295 872 - 33 - 2 - 1 - 9 905 2015-12-08 07:29:37
2,455 Less Talk More Rokk (Mark Saunders Remix) [FC] 2,134,300 1,343 - 38 - 4 - 0 - 1 1,385 2015-12-08 07:20:25
2,804 NeoMAX 972,425 671 - 26 - 3 - 2 - 16 597 2015-12-08 07:15:04
5,022 Z [FC] 1,335,290 822 - 40 - 10 - 0 - 18 872 2015-12-08 07:11:59
3,902 That is Fair [FC] 898,275 535 - 51 - 4 - 0 - 11 590 2015-12-08 07:09:28
26,272 That is Fair 189,925 117 - 7 - 0 - 1 - 2 124 2015-12-08 07:07:58
5,105 Z 1,333,455 816 - 51 - 4 - 1 - 14 871 2015-12-08 07:06:37
20,984 Z 615,300 375 - 27 - 1 - 1 - 6 402 2015-12-08 07:04:26
20,602 Z 475,200 434 - 24 - 0 - 12 - 19 234 2015-12-08 07:03:19
1,210 Hillbilly Rodeo [FC] 1,115,780 710 - 12 - 0 - 0 - 1 722 2015-12-08 07:01:38
6,397 Hillbilly Rodeo 996,560 635 - 16 - 2 - 16 - 12 648 2015-12-08 06:59:15
8,276 AAA 822,655 828 - 168 - 13 - 28 - 49 330 2015-12-08 06:55:59
6,618 20031023 843,720 961 - 129 - 9 - 20 - 30 286 2015-12-08 06:53:41
2,447 Destined Marionette 637,015 783 - 240 - 27 - 80 - 116 166 2015-12-08 06:50:31
1,161 Playing Super Mario World While Taking Mushrooms 753,705 1,176 - 799 - 144 - 508 - 413 45 2015-12-08 06:46:23
2,392 Counter Strike Gun Sounds 315,265 377 - 88 - 5 - 32 - 32 94 2015-12-08 06:43:00
2,135 Angel Island Remix 866,260 845 - 223 - 31 - 60 - 96 359 2015-12-08 06:41:07
1,720 0 (piano version) 582,050 687 - 278 - 46 - 118 - 160 165 2015-12-08 06:38:11
2,574 Starwolf 441,670 639 - 309 - 47 - 160 - 187 56 2015-12-08 06:35:24
1 2 3 4 5 6 7 8 9 10 11 12 13 14 15 16 17